<?xml version="1.0" encoding="UTF-8" standalone="no" ?>
<gpx xmlns="http://www.topografix.com/GPX/1/1" xmlns:xsi="http://www.w3.org/2001/XMLSchema-instance" xsi:schemaLocation="http://www.topografix.com/GPX/1/1 http://www.topografix.com/GPX/1/1/gpx.xsd" version="1.1" creator="VisuGPX - https://www.visugpx.com">
  <metadata>
    <name>Sortie VTT Route</name>
    <desc><![CDATA[Sortie VVT route]]></desc>
  </metadata>
  <trk>
    <name><![CDATA[Sortie VTT Route_1]]></name>
    <trkseg>
      <trkpt lat="46.38258" lon="-0.39142">
        <ele>56.8</ele>
        <time>2012-07-24T18:47:28Z</time>
      </trkpt>
      <trkpt lat="46.38258" lon="-0.39142">
        <ele>63.9</ele>
        <time>2012-07-24T18:47:28Z</time>
      </trkpt>
      <trkpt lat="46.38244" lon="-0.39141">
        <ele>56.9</ele>
        <time>2012-07-24T18:47:37Z</time>
      </trkpt>
      <trkpt lat="46.38228" lon="-0.39141">
        <ele>57.9</ele>
        <time>2012-07-24T18:47:43Z</time>
      </trkpt>
      <trkpt lat="46.38212" lon="-0.39141">
        <ele>57.9</ele>
        <time>2012-07-24T18:47:48Z</time>
      </trkpt>
      <trkpt lat="46.38198" lon="-0.39143">
        <ele>57.9</ele>
        <time>2012-07-24T18:47:52Z</time>
      </trkpt>
      <trkpt lat="46.38184" lon="-0.39154">
        <ele>55.9</ele>
        <time>2012-07-24T18:47:59Z</time>
      </trkpt>
      <trkpt lat="46.3817" lon="-0.39165">
        <ele>54.9</ele>
        <time>2012-07-24T18:48:05Z</time>
      </trkpt>
      <trkpt lat="46.3815" lon="-0.39177">
        <ele>54.9</ele>
        <time>2012-07-24T18:48:10Z</time>
      </trkpt>
      <trkpt lat="46.38117" lon="-0.39198">
        <ele>54.9</ele>
        <time>2012-07-24T18:48:18Z</time>
      </trkpt>
      <trkpt lat="46.38102" lon="-0.39208">
        <ele>55.9</ele>
        <time>2012-07-24T18:48:22Z</time>
      </trkpt>
      <trkpt lat="46.38075" lon="-0.39225">
        <ele>55.9</ele>
        <time>2012-07-24T18:48:29Z</time>
      </trkpt>
      <trkpt lat="46.38044" lon="-0.39245">
        <ele>54.9</ele>
        <time>2012-07-24T18:48:36Z</time>
      </trkpt>
      <trkpt lat="46.38017" lon="-0.39266">
        <ele>53.9</ele>
        <time>2012-07-24T18:48:42Z</time>
      </trkpt>
      <trkpt lat="46.3799" lon="-0.39287">
        <ele>53.9</ele>
        <time>2012-07-24T18:48:48Z</time>
      </trkpt>
      <trkpt lat="46.37966" lon="-0.39311">
        <ele>51.9</ele>
        <time>2012-07-24T18:48:54Z</time>
      </trkpt>
      <trkpt lat="46.37939" lon="-0.39332">
        <ele>50.9</ele>
        <time>2012-07-24T18:49:00Z</time>
      </trkpt>
      <trkpt lat="46.3791" lon="-0.39354">
        <ele>51.9</ele>
        <time>2012-07-24T18:49:06Z</time>
      </trkpt>
      <trkpt lat="46.37882" lon="-0.39382">
        <ele>51.9</ele>
        <time>2012-07-24T18:49:12Z</time>
      </trkpt>
      <trkpt lat="46.3785" lon="-0.39411">
        <ele>52.9</ele>
        <time>2012-07-24T18:49:18Z</time>
      </trkpt>
      <trkpt lat="46.37822" lon="-0.39438">
        <ele>51.9</ele>
        <time>2012-07-24T18:49:23Z</time>
      </trkpt>
      <trkpt lat="46.37789" lon="-0.39471">
        <ele>52.9</ele>
        <time>2012-07-24T18:49:29Z</time>
      </trkpt>
      <trkpt lat="46.37763" lon="-0.39502">
        <ele>52.9</ele>
        <time>2012-07-24T18:49:34Z</time>
      </trkpt>
      <trkpt lat="46.37736" lon="-0.39534">
        <ele>53.9</ele>
        <time>2012-07-24T18:49:39Z</time>
      </trkpt>
      <trkpt lat="46.37711" lon="-0.39566">
        <ele>53.9</ele>
        <time>2012-07-24T18:49:44Z</time>
      </trkpt>
      <trkpt lat="46.37681" lon="-0.396">
        <ele>53.9</ele>
        <time>2012-07-24T18:49:50Z</time>
      </trkpt>
      <trkpt lat="46.37655" lon="-0.3963">
        <ele>53.9</ele>
        <time>2012-07-24T18:49:55Z</time>
      </trkpt>
      <trkpt lat="46.37624" lon="-0.39651">
        <ele>57.9</ele>
        <time>2012-07-24T18:50:00Z</time>
      </trkpt>
      <trkpt lat="46.37595" lon="-0.39658">
        <ele>58.9</ele>
        <time>2012-07-24T18:50:06Z</time>
      </trkpt>
      <trkpt lat="46.37565" lon="-0.39667">
        <ele>56.9</ele>
        <time>2012-07-24T18:50:12Z</time>
      </trkpt>
      <trkpt lat="46.37533" lon="-0.39678">
        <ele>55.9</ele>
        <time>2012-07-24T18:50:18Z</time>
      </trkpt>
      <trkpt lat="46.37506" lon="-0.39693">
        <ele>53.9</ele>
        <time>2012-07-24T18:50:24Z</time>
      </trkpt>
      <trkpt lat="46.37483" lon="-0.39706">
        <ele>51.9</ele>
        <time>2012-07-24T18:50:29Z</time>
      </trkpt>
      <trkpt lat="46.37454" lon="-0.39717">
        <ele>50.9</ele>
        <time>2012-07-24T18:50:35Z</time>
      </trkpt>
      <trkpt lat="46.37439" lon="-0.39726">
        <ele>49.9</ele>
        <time>2012-07-24T18:50:39Z</time>
      </trkpt>
      <trkpt lat="46.37431" lon="-0.39711">
        <ele>46.9</ele>
        <time>2012-07-24T18:50:46Z</time>
      </trkpt>
      <trkpt lat="46.37426" lon="-0.39685">
        <ele>46.9</ele>
        <time>2012-07-24T18:50:50Z</time>
      </trkpt>
      <trkpt lat="46.37419" lon="-0.39641">
        <ele>52.9</ele>
        <time>2012-07-24T18:50:57Z</time>
      </trkpt>
      <trkpt lat="46.37411" lon="-0.39596">
        <ele>56.9</ele>
        <time>2012-07-24T18:51:03Z</time>
      </trkpt>
      <trkpt lat="46.37404" lon="-0.39545">
        <ele>58.9</ele>
        <time>2012-07-24T18:51:09Z</time>
      </trkpt>
      <trkpt lat="46.37403" lon="-0.39489">
        <ele>60.9</ele>
        <time>2012-07-24T18:51:15Z</time>
      </trkpt>
      <trkpt lat="46.37402" lon="-0.39443">
        <ele>60.9</ele>
        <time>2012-07-24T18:51:20Z</time>
      </trkpt>
      <trkpt lat="46.37396" lon="-0.39388">
        <ele>60.9</ele>
        <time>2012-07-24T18:51:26Z</time>
      </trkpt>
      <trkpt lat="46.37389" lon="-0.39336">
        <ele>60.9</ele>
        <time>2012-07-24T18:51:32Z</time>
      </trkpt>
      <trkpt lat="46.37384" lon="-0.39285">
        <ele>60.9</ele>
        <time>2012-07-24T18:51:38Z</time>
      </trkpt>
      <trkpt lat="46.37378" lon="-0.39225">
        <ele>59.9</ele>
        <time>2012-07-24T18:51:45Z</time>
      </trkpt>
      <trkpt lat="46.37371" lon="-0.39173">
        <ele>59.9</ele>
        <time>2012-07-24T18:51:51Z</time>
      </trkpt>
      <trkpt lat="46.37365" lon="-0.3912">
        <ele>61.9</ele>
        <time>2012-07-24T18:51:57Z</time>
      </trkpt>
      <trkpt lat="46.37357" lon="-0.39065">
        <ele>60.9</ele>
        <time>2012-07-24T18:52:03Z</time>
      </trkpt>
      <trkpt lat="46.3735" lon="-0.39015">
        <ele>61.9</ele>
        <time>2012-07-24T18:52:08Z</time>
      </trkpt>
      <trkpt lat="46.37342" lon="-0.38967">
        <ele>61.9</ele>
        <time>2012-07-24T18:52:12Z</time>
      </trkpt>
      <trkpt lat="46.37333" lon="-0.38918">
        <ele>62.9</ele>
        <time>2012-07-24T18:52:16Z</time>
      </trkpt>
      <trkpt lat="46.37321" lon="-0.38873">
        <ele>61.9</ele>
        <time>2012-07-24T18:52:20Z</time>
      </trkpt>
      <trkpt lat="46.37308" lon="-0.38828">
        <ele>61.9</ele>
        <time>2012-07-24T18:52:25Z</time>
      </trkpt>
      <trkpt lat="46.3729" lon="-0.38782">
        <ele>63.9</ele>
        <time>2012-07-24T18:52:31Z</time>
      </trkpt>
      <trkpt lat="46.3726" lon="-0.38738">
        <ele>63.9</ele>
        <time>2012-07-24T18:52:38Z</time>
      </trkpt>
      <trkpt lat="46.37233" lon="-0.38704">
        <ele>64.9</ele>
        <time>2012-07-24T18:52:44Z</time>
      </trkpt>
      <trkpt lat="46.37209" lon="-0.38665">
        <ele>63.9</ele>
        <time>2012-07-24T18:52:50Z</time>
      </trkpt>
      <trkpt lat="46.37189" lon="-0.38619">
        <ele>61.9</ele>
        <time>2012-07-24T18:52:56Z</time>
      </trkpt>
      <trkpt lat="46.37179" lon="-0.38571">
        <ele>58.9</ele>
        <time>2012-07-24T18:53:02Z</time>
      </trkpt>
      <trkpt lat="46.37174" lon="-0.38521">
        <ele>58.9</ele>
        <time>2012-07-24T18:53:08Z</time>
      </trkpt>
      <trkpt lat="46.37176" lon="-0.38487">
        <ele>57.9</ele>
        <time>2012-07-24T18:53:12Z</time>
      </trkpt>
      <trkpt lat="46.37175" lon="-0.38438">
        <ele>57.9</ele>
        <time>2012-07-24T18:53:18Z</time>
      </trkpt>
      <trkpt lat="46.37171" lon="-0.3839">
        <ele>58.9</ele>
        <time>2012-07-24T18:53:24Z</time>
      </trkpt>
      <trkpt lat="46.37165" lon="-0.38342">
        <ele>58.9</ele>
        <time>2012-07-24T18:53:30Z</time>
      </trkpt>
      <trkpt lat="46.37155" lon="-0.38291">
        <ele>58.9</ele>
        <time>2012-07-24T18:53:36Z</time>
      </trkpt>
      <trkpt lat="46.37142" lon="-0.38247">
        <ele>58.9</ele>
        <time>2012-07-24T18:53:41Z</time>
      </trkpt>
      <trkpt lat="46.37128" lon="-0.38212">
        <ele>57.9</ele>
        <time>2012-07-24T18:53:45Z</time>
      </trkpt>
      <trkpt lat="46.37113" lon="-0.38178">
        <ele>57.9</ele>
        <time>2012-07-24T18:53:49Z</time>
      </trkpt>
      <trkpt lat="46.37087" lon="-0.38128">
        <ele>60.9</ele>
        <time>2012-07-24T18:53:55Z</time>
      </trkpt>
      <trkpt lat="46.3707" lon="-0.38096">
        <ele>66.9</ele>
        <time>2012-07-24T18:53:59Z</time>
      </trkpt>
      <trkpt lat="46.37049" lon="-0.38069">
        <ele>69.9</ele>
        <time>2012-07-24T18:54:03Z</time>
      </trkpt>
      <trkpt lat="46.37028" lon="-0.38039">
        <ele>70.9</ele>
        <time>2012-07-24T18:54:07Z</time>
      </trkpt>
      <trkpt lat="46.36998" lon="-0.38012">
        <ele>70.9</ele>
        <time>2012-07-24T18:54:12Z</time>
      </trkpt>
      <trkpt lat="46.36971" lon="-0.37991">
        <ele>69.9</ele>
        <time>2012-07-24T18:54:17Z</time>
      </trkpt>
      <trkpt lat="46.36939" lon="-0.37971">
        <ele>68.9</ele>
        <time>2012-07-24T18:54:23Z</time>
      </trkpt>
      <trkpt lat="46.36908" lon="-0.37953">
        <ele>68.9</ele>
        <time>2012-07-24T18:54:29Z</time>
      </trkpt>
      <trkpt lat="46.36878" lon="-0.37931">
        <ele>67.9</ele>
        <time>2012-07-24T18:54:35Z</time>
      </trkpt>
      <trkpt lat="46.3685" lon="-0.37901">
        <ele>67.9</ele>
        <time>2012-07-24T18:54:41Z</time>
      </trkpt>
      <trkpt lat="46.36824" lon="-0.37871">
        <ele>66.9</ele>
        <time>2012-07-24T18:54:47Z</time>
      </trkpt>
      <trkpt lat="46.36792" lon="-0.37836">
        <ele>66.9</ele>
        <time>2012-07-24T18:54:54Z</time>
      </trkpt>
      <trkpt lat="46.36763" lon="-0.37822">
        <ele>70.9</ele>
        <time>2012-07-24T18:55:00Z</time>
      </trkpt>
      <trkpt lat="46.36735" lon="-0.37809">
        <ele>77.9</ele>
        <time>2012-07-24T18:55:06Z</time>
      </trkpt>
      <trkpt lat="46.36706" lon="-0.37796">
        <ele>78.9</ele>
        <time>2012-07-24T18:55:12Z</time>
      </trkpt>
      <trkpt lat="46.36678" lon="-0.37783">
        <ele>77.9</ele>
        <time>2012-07-24T18:55:18Z</time>
      </trkpt>
      <trkpt lat="46.36649" lon="-0.37763">
        <ele>79.9</ele>
        <time>2012-07-24T18:55:24Z</time>
      </trkpt>
      <trkpt lat="46.3662" lon="-0.37742">
        <ele>79.9</ele>
        <time>2012-07-24T18:55:30Z</time>
      </trkpt>
      <trkpt lat="46.3659" lon="-0.37715">
        <ele>81.9</ele>
        <time>2012-07-24T18:55:36Z</time>
      </trkpt>
      <trkpt lat="46.36559" lon="-0.37681">
        <ele>84.9</ele>
        <time>2012-07-24T18:55:42Z</time>
      </trkpt>
      <trkpt lat="46.36533" lon="-0.37653">
        <ele>85.9</ele>
        <time>2012-07-24T18:55:48Z</time>
      </trkpt>
      <trkpt lat="46.36509" lon="-0.37635">
        <ele>86.9</ele>
        <time>2012-07-24T18:55:53Z</time>
      </trkpt>
      <trkpt lat="46.36496" lon="-0.37625">
        <ele>87.9</ele>
        <time>2012-07-24T18:55:57Z</time>
      </trkpt>
      <trkpt lat="46.36476" lon="-0.37614">
        <ele>88.9</ele>
        <time>2012-07-24T18:56:02Z</time>
      </trkpt>
      <trkpt lat="46.36458" lon="-0.37604">
        <ele>88.9</ele>
        <time>2012-07-24T18:56:06Z</time>
      </trkpt>
      <trkpt lat="46.36437" lon="-0.37595">
        <ele>87.9</ele>
        <time>2012-07-24T18:56:10Z</time>
      </trkpt>
      <trkpt lat="46.36404" lon="-0.37585">
        <ele>86.9</ele>
        <time>2012-07-24T18:56:15Z</time>
      </trkpt>
      <trkpt lat="46.36375" lon="-0.37565">
        <ele>86.9</ele>
        <time>2012-07-24T18:56:19Z</time>
      </trkpt>
      <trkpt lat="46.3636" lon="-0.37508">
        <ele>83.9</ele>
        <time>2012-07-24T18:56:24Z</time>
      </trkpt>
      <trkpt lat="46.36353" lon="-0.37462">
        <ele>82.9</ele>
        <time>2012-07-24T18:56:29Z</time>
      </trkpt>
      <trkpt lat="46.36348" lon="-0.37414">
        <ele>80.9</ele>
        <time>2012-07-24T18:56:35Z</time>
      </trkpt>
      <trkpt lat="46.36345" lon="-0.37363">
        <ele>78.9</ele>
        <time>2012-07-24T18:56:41Z</time>
      </trkpt>
      <trkpt lat="46.36343" lon="-0.37329">
        <ele>76.9</ele>
        <time>2012-07-24T18:56:45Z</time>
      </trkpt>
      <trkpt lat="46.36327" lon="-0.37285">
        <ele>73.9</ele>
        <time>2012-07-24T18:56:51Z</time>
      </trkpt>
      <trkpt lat="46.36307" lon="-0.37246">
        <ele>71.9</ele>
        <time>2012-07-24T18:56:57Z</time>
      </trkpt>
      <trkpt lat="46.36286" lon="-0.37212">
        <ele>71.9</ele>
        <time>2012-07-24T18:57:03Z</time>
      </trkpt>
      <trkpt lat="46.36257" lon="-0.37198">
        <ele>69.9</ele>
        <time>2012-07-24T18:57:09Z</time>
      </trkpt>
      <trkpt lat="46.36228" lon="-0.37182">
        <ele>68.9</ele>
        <time>2012-07-24T18:57:15Z</time>
      </trkpt>
      <trkpt lat="46.36199" lon="-0.37161">
        <ele>70.9</ele>
        <time>2012-07-24T18:57:21Z</time>
      </trkpt>
      <trkpt lat="46.36184" lon="-0.37122">
        <ele>68.9</ele>
        <time>2012-07-24T18:57:28Z</time>
      </trkpt>
      <trkpt lat="46.36197" lon="-0.37072">
        <ele>67.9</ele>
        <time>2012-07-24T18:57:34Z</time>
      </trkpt>
      <trkpt lat="46.36214" lon="-0.37013">
        <ele>68.9</ele>
        <time>2012-07-24T18:57:40Z</time>
      </trkpt>
      <trkpt lat="46.36227" lon="-0.36961">
        <ele>68.9</ele>
        <time>2012-07-24T18:57:45Z</time>
      </trkpt>
      <trkpt lat="46.36236" lon="-0.36919">
        <ele>67.9</ele>
        <time>2012-07-24T18:57:49Z</time>
      </trkpt>
      <trkpt lat="46.36241" lon="-0.3685">
        <ele>66.9</ele>
        <time>2012-07-24T18:57:55Z</time>
      </trkpt>
      <trkpt lat="46.36244" lon="-0.36777">
        <ele>65.9</ele>
        <time>2012-07-24T18:58:01Z</time>
      </trkpt>
      <trkpt lat="46.36257" lon="-0.36717">
        <ele>64.9</ele>
        <time>2012-07-24T18:58:06Z</time>
      </trkpt>
      <trkpt lat="46.36271" lon="-0.3667">
        <ele>64.9</ele>
        <time>2012-07-24T18:58:10Z</time>
      </trkpt>
      <trkpt lat="46.36294" lon="-0.36601">
        <ele>62.9</ele>
        <time>2012-07-24T18:58:16Z</time>
      </trkpt>
      <trkpt lat="46.36318" lon="-0.3654">
        <ele>62.9</ele>
        <time>2012-07-24T18:58:22Z</time>
      </trkpt>
      <trkpt lat="46.36343" lon="-0.36486">
        <ele>62.9</ele>
        <time>2012-07-24T18:58:27Z</time>
      </trkpt>
      <trkpt lat="46.36363" lon="-0.3645">
        <ele>62.9</ele>
        <time>2012-07-24T18:58:31Z</time>
      </trkpt>
      <trkpt lat="46.36387" lon="-0.36415">
        <ele>62.9</ele>
        <time>2012-07-24T18:58:36Z</time>
      </trkpt>
      <trkpt lat="46.36404" lon="-0.36364">
        <ele>64.9</ele>
        <time>2012-07-24T18:58:42Z</time>
      </trkpt>
      <trkpt lat="46.36415" lon="-0.36309">
        <ele>64.9</ele>
        <time>2012-07-24T18:58:48Z</time>
      </trkpt>
      <trkpt lat="46.36424" lon="-0.36259">
        <ele>63.9</ele>
        <time>2012-07-24T18:58:54Z</time>
      </trkpt>
      <trkpt lat="46.36437" lon="-0.36215">
        <ele>61.9</ele>
        <time>2012-07-24T18:58:59Z</time>
      </trkpt>
      <trkpt lat="46.3645" lon="-0.3617">
        <ele>59.9</ele>
        <time>2012-07-24T18:59:04Z</time>
      </trkpt>
      <trkpt lat="46.36461" lon="-0.3613">
        <ele>59.9</ele>
        <time>2012-07-24T18:59:08Z</time>
      </trkpt>
      <trkpt lat="46.36475" lon="-0.36093">
        <ele>60.9</ele>
        <time>2012-07-24T18:59:12Z</time>
      </trkpt>
      <trkpt lat="46.36494" lon="-0.36056">
        <ele>59.9</ele>
        <time>2012-07-24T18:59:16Z</time>
      </trkpt>
      <trkpt lat="46.36528" lon="-0.36012">
        <ele>59.9</ele>
        <time>2012-07-24T18:59:22Z</time>
      </trkpt>
      <trkpt lat="46.36549" lon="-0.35987">
        <ele>57.9</ele>
        <time>2012-07-24T18:59:26Z</time>
      </trkpt>
      <trkpt lat="46.3658" lon="-0.3595">
        <ele>56.9</ele>
        <time>2012-07-24T18:59:32Z</time>
      </trkpt>
      <trkpt lat="46.36609" lon="-0.35914">
        <ele>56.9</ele>
        <time>2012-07-24T18:59:38Z</time>
      </trkpt>
      <trkpt lat="46.36642" lon="-0.3587">
        <ele>58.9</ele>
        <time>2012-07-24T18:59:45Z</time>
      </trkpt>
      <trkpt lat="46.36681" lon="-0.35829">
        <ele>59.9</ele>
        <time>2012-07-24T18:59:52Z</time>
      </trkpt>
      <trkpt lat="46.3671" lon="-0.35804">
        <ele>61.9</ele>
        <time>2012-07-24T18:59:57Z</time>
      </trkpt>
      <trkpt lat="46.36742" lon="-0.35791">
        <ele>62.9</ele>
        <time>2012-07-24T19:00:02Z</time>
      </trkpt>
      <trkpt lat="46.36772" lon="-0.35782">
        <ele>63.9</ele>
        <time>2012-07-24T19:00:06Z</time>
      </trkpt>
      <trkpt lat="46.36801" lon="-0.35765">
        <ele>65.9</ele>
        <time>2012-07-24T19:00:10Z</time>
      </trkpt>
      <trkpt lat="46.36848" lon="-0.35737">
        <ele>68.9</ele>
        <time>2012-07-24T19:00:16Z</time>
      </trkpt>
      <trkpt lat="46.36877" lon="-0.35717">
        <ele>68.9</ele>
        <time>2012-07-24T19:00:20Z</time>
      </trkpt>
      <trkpt lat="46.36924" lon="-0.35681">
        <ele>67.9</ele>
        <time>2012-07-24T19:00:27Z</time>
      </trkpt>
      <trkpt lat="46.36953" lon="-0.35657">
        <ele>66.9</ele>
        <time>2012-07-24T19:00:34Z</time>
      </trkpt>
      <trkpt lat="46.3699" lon="-0.35617">
        <ele>67.9</ele>
        <time>2012-07-24T19:00:40Z</time>
      </trkpt>
      <trkpt lat="46.37022" lon="-0.35585">
        <ele>68.9</ele>
        <time>2012-07-24T19:00:45Z</time>
      </trkpt>
      <trkpt lat="46.37056" lon="-0.35548">
        <ele>70.9</ele>
        <time>2012-07-24T19:00:50Z</time>
      </trkpt>
      <trkpt lat="46.37086" lon="-0.35517">
        <ele>73.9</ele>
        <time>2012-07-24T19:00:54Z</time>
      </trkpt>
      <trkpt lat="46.37121" lon="-0.35477">
        <ele>75.9</ele>
        <time>2012-07-24T19:00:59Z</time>
      </trkpt>
      <trkpt lat="46.37159" lon="-0.35421">
        <ele>76.9</ele>
        <time>2012-07-24T19:01:05Z</time>
      </trkpt>
      <trkpt lat="46.37174" lon="-0.35374">
        <ele>75.9</ele>
        <time>2012-07-24T19:01:09Z</time>
      </trkpt>
      <trkpt lat="46.37186" lon="-0.35327">
        <ele>72.9</ele>
        <time>2012-07-24T19:01:13Z</time>
      </trkpt>
      <trkpt lat="46.37205" lon="-0.35254">
        <ele>70.9</ele>
        <time>2012-07-24T19:01:19Z</time>
      </trkpt>
      <trkpt lat="46.37201" lon="-0.35187">
        <ele>69.9</ele>
        <time>2012-07-24T19:01:26Z</time>
      </trkpt>
      <trkpt lat="46.37203" lon="-0.35138">
        <ele>67.9</ele>
        <time>2012-07-24T19:01:33Z</time>
      </trkpt>
      <trkpt lat="46.37207" lon="-0.35095">
        <ele>66.9</ele>
        <time>2012-07-24T19:01:40Z</time>
      </trkpt>
      <trkpt lat="46.37215" lon="-0.35051">
        <ele>65.9</ele>
        <time>2012-07-24T19:01:47Z</time>
      </trkpt>
      <trkpt lat="46.37221" lon="-0.35009">
        <ele>65.9</ele>
        <time>2012-07-24T19:01:53Z</time>
      </trkpt>
      <trkpt lat="46.37231" lon="-0.34964">
        <ele>65.9</ele>
        <time>2012-07-24T19:01:59Z</time>
      </trkpt>
      <trkpt lat="46.37241" lon="-0.34925">
        <ele>63.9</ele>
        <time>2012-07-24T19:02:04Z</time>
      </trkpt>
      <trkpt lat="46.3725" lon="-0.34895">
        <ele>62.9</ele>
        <time>2012-07-24T19:02:08Z</time>
      </trkpt>
      <trkpt lat="46.37263" lon="-0.34862">
        <ele>61.9</ele>
        <time>2012-07-24T19:02:12Z</time>
      </trkpt>
      <trkpt lat="46.37282" lon="-0.34803">
        <ele>61.9</ele>
        <time>2012-07-24T19:02:18Z</time>
      </trkpt>
      <trkpt lat="46.37286" lon="-0.34745">
        <ele>61.9</ele>
        <time>2012-07-24T19:02:23Z</time>
      </trkpt>
      <trkpt lat="46.37285" lon="-0.34683">
        <ele>60.9</ele>
        <time>2012-07-24T19:02:27Z</time>
      </trkpt>
      <trkpt lat="46.37294" lon="-0.34621">
        <ele>59.9</ele>
        <time>2012-07-24T19:02:31Z</time>
      </trkpt>
      <trkpt lat="46.37303" lon="-0.34547">
        <ele>58.9</ele>
        <time>2012-07-24T19:02:36Z</time>
      </trkpt>
      <trkpt lat="46.37272" lon="-0.34499">
        <ele>57.9</ele>
        <time>2012-07-24T19:02:41Z</time>
      </trkpt>
      <trkpt lat="46.37241" lon="-0.3447">
        <ele>55.9</ele>
        <time>2012-07-24T19:02:46Z</time>
      </trkpt>
      <trkpt lat="46.37215" lon="-0.34435">
        <ele>53.9</ele>
        <time>2012-07-24T19:02:53Z</time>
      </trkpt>
      <trkpt lat="46.37217" lon="-0.34414">
        <ele>48.9</ele>
        <time>2012-07-24T19:03:00Z</time>
      </trkpt>
      <trkpt lat="46.37245" lon="-0.34383">
        <ele>46.9</ele>
        <time>2012-07-24T19:03:06Z</time>
      </trkpt>
      <trkpt lat="46.37275" lon="-0.34364">
        <ele>44.9</ele>
        <time>2012-07-24T19:03:12Z</time>
      </trkpt>
      <trkpt lat="46.37309" lon="-0.34343">
        <ele>42.9</ele>
        <time>2012-07-24T19:03:18Z</time>
      </trkpt>
      <trkpt lat="46.37338" lon="-0.34326">
        <ele>42.9</ele>
        <time>2012-07-24T19:03:22Z</time>
      </trkpt>
      <trkpt lat="46.37385" lon="-0.34295">
        <ele>43.9</ele>
        <time>2012-07-24T19:03:28Z</time>
      </trkpt>
      <trkpt lat="46.37412" lon="-0.34274">
        <ele>43.9</ele>
        <time>2012-07-24T19:03:32Z</time>
      </trkpt>
      <trkpt lat="46.37441" lon="-0.34252">
        <ele>44.9</ele>
        <time>2012-07-24T19:03:37Z</time>
      </trkpt>
      <trkpt lat="46.37472" lon="-0.3423">
        <ele>45.9</ele>
        <time>2012-07-24T19:03:43Z</time>
      </trkpt>
      <trkpt lat="46.37502" lon="-0.34212">
        <ele>46.9</ele>
        <time>2012-07-24T19:03:49Z</time>
      </trkpt>
      <trkpt lat="46.3753" lon="-0.34205">
        <ele>46.9</ele>
        <time>2012-07-24T19:03:54Z</time>
      </trkpt>
      <trkpt lat="46.37567" lon="-0.34208">
        <ele>45.9</ele>
        <time>2012-07-24T19:04:00Z</time>
      </trkpt>
      <trkpt lat="46.37602" lon="-0.34218">
        <ele>45.9</ele>
        <time>2012-07-24T19:04:05Z</time>
      </trkpt>
      <trkpt lat="46.37632" lon="-0.34231">
        <ele>44.9</ele>
        <time>2012-07-24T19:04:09Z</time>
      </trkpt>
      <trkpt lat="46.37679" lon="-0.34247">
        <ele>42.9</ele>
        <time>2012-07-24T19:04:16Z</time>
      </trkpt>
      <trkpt lat="46.37716" lon="-0.34264">
        <ele>41.9</ele>
        <time>2012-07-24T19:04:22Z</time>
      </trkpt>
      <trkpt lat="46.37751" lon="-0.34278">
        <ele>43.9</ele>
        <time>2012-07-24T19:04:28Z</time>
      </trkpt>
      <trkpt lat="46.37785" lon="-0.34287">
        <ele>42.9</ele>
        <time>2012-07-24T19:04:34Z</time>
      </trkpt>
      <trkpt lat="46.37818" lon="-0.34291">
        <ele>42.9</ele>
        <time>2012-07-24T19:04:40Z</time>
      </trkpt>
      <trkpt lat="46.37854" lon="-0.34294">
        <ele>40.9</ele>
        <time>2012-07-24T19:04:46Z</time>
      </trkpt>
      <trkpt lat="46.37885" lon="-0.34297">
        <ele>40.9</ele>
        <time>2012-07-24T19:04:52Z</time>
      </trkpt>
      <trkpt lat="46.37918" lon="-0.34296">
        <ele>40.9</ele>
        <time>2012-07-24T19:05:00Z</time>
      </trkpt>
      <trkpt lat="46.37931" lon="-0.34291">
        <ele>41.9</ele>
        <time>2012-07-24T19:05:06Z</time>
      </trkpt>
      <trkpt lat="46.37946" lon="-0.34285">
        <ele>40.9</ele>
        <time>2012-07-24T19:05:11Z</time>
      </trkpt>
      <trkpt lat="46.3796" lon="-0.34269">
        <ele>40.9</ele>
        <time>2012-07-24T19:05:20Z</time>
      </trkpt>
      <trkpt lat="46.3799" lon="-0.34247">
        <ele>43.9</ele>
        <time>2012-07-24T19:05:28Z</time>
      </trkpt>
      <trkpt lat="46.38021" lon="-0.3423">
        <ele>45.9</ele>
        <time>2012-07-24T19:05:39Z</time>
      </trkpt>
      <trkpt lat="46.3805" lon="-0.34219">
        <ele>46.9</ele>
        <time>2012-07-24T19:05:47Z</time>
      </trkpt>
      <trkpt lat="46.38083" lon="-0.3421">
        <ele>46.9</ele>
        <time>2012-07-24T19:05:54Z</time>
      </trkpt>
      <trkpt lat="46.38114" lon="-0.34201">
        <ele>46.9</ele>
        <time>2012-07-24T19:06:01Z</time>
      </trkpt>
      <trkpt lat="46.38143" lon="-0.34194">
        <ele>46.9</ele>
        <time>2012-07-24T19:06:07Z</time>
      </trkpt>
      <trkpt lat="46.38166" lon="-0.34189">
        <ele>46.9</ele>
        <time>2012-07-24T19:06:11Z</time>
      </trkpt>
      <trkpt lat="46.38198" lon="-0.34186">
        <ele>46.9</ele>
        <time>2012-07-24T19:06:17Z</time>
      </trkpt>
      <trkpt lat="46.3822" lon="-0.34182">
        <ele>46.9</ele>
        <time>2012-07-24T19:06:22Z</time>
      </trkpt>
      <trkpt lat="46.38255" lon="-0.3418">
        <ele>48.9</ele>
        <time>2012-07-24T19:06:30Z</time>
      </trkpt>
      <trkpt lat="46.38288" lon="-0.3418">
        <ele>51.9</ele>
        <time>2012-07-24T19:06:38Z</time>
      </trkpt>
      <trkpt lat="46.38314" lon="-0.34177">
        <ele>53.9</ele>
        <time>2012-07-24T19:06:44Z</time>
      </trkpt>
      <trkpt lat="46.38341" lon="-0.34177">
        <ele>54.9</ele>
        <time>2012-07-24T19:06:50Z</time>
      </trkpt>
      <trkpt lat="46.3837" lon="-0.34179">
        <ele>55.9</ele>
        <time>2012-07-24T19:06:56Z</time>
      </trkpt>
      <trkpt lat="46.38396" lon="-0.3418">
        <ele>55.9</ele>
        <time>2012-07-24T19:07:01Z</time>
      </trkpt>
      <trkpt lat="46.38436" lon="-0.34184">
        <ele>56.9</ele>
        <time>2012-07-24T19:07:08Z</time>
      </trkpt>
      <trkpt lat="46.3846" lon="-0.34182">
        <ele>56.9</ele>
        <time>2012-07-24T19:07:12Z</time>
      </trkpt>
      <trkpt lat="46.38492" lon="-0.34177">
        <ele>56.9</ele>
        <time>2012-07-24T19:07:18Z</time>
      </trkpt>
      <trkpt lat="46.38523" lon="-0.34167">
        <ele>57.9</ele>
        <time>2012-07-24T19:07:24Z</time>
      </trkpt>
      <trkpt lat="46.38549" lon="-0.34154">
        <ele>61.9</ele>
        <time>2012-07-24T19:07:29Z</time>
      </trkpt>
      <trkpt lat="46.3857" lon="-0.34143">
        <ele>63.9</ele>
        <time>2012-07-24T19:07:33Z</time>
      </trkpt>
      <trkpt lat="46.386" lon="-0.34129">
        <ele>67.9</ele>
        <time>2012-07-24T19:07:39Z</time>
      </trkpt>
      <trkpt lat="46.38629" lon="-0.34116">
        <ele>67.9</ele>
        <time>2012-07-24T19:07:45Z</time>
      </trkpt>
      <trkpt lat="46.38649" lon="-0.34108">
        <ele>67.9</ele>
        <time>2012-07-24T19:07:49Z</time>
      </trkpt>
      <trkpt lat="46.38685" lon="-0.34091">
        <ele>69.9</ele>
        <time>2012-07-24T19:07:56Z</time>
      </trkpt>
      <trkpt lat="46.38718" lon="-0.3407">
        <ele>69.9</ele>
        <time>2012-07-24T19:08:02Z</time>
      </trkpt>
      <trkpt lat="46.38754" lon="-0.34054">
        <ele>69.9</ele>
        <time>2012-07-24T19:08:07Z</time>
      </trkpt>
      <trkpt lat="46.38786" lon="-0.34043">
        <ele>68.9</ele>
        <time>2012-07-24T19:08:11Z</time>
      </trkpt>
      <trkpt lat="46.3883" lon="-0.34025">
        <ele>68.9</ele>
        <time>2012-07-24T19:08:17Z</time>
      </trkpt>
      <trkpt lat="46.38858" lon="-0.34012">
        <ele>69.9</ele>
        <time>2012-07-24T19:08:21Z</time>
      </trkpt>
      <trkpt lat="46.38892" lon="-0.3399">
        <ele>69.9</ele>
        <time>2012-07-24T19:08:26Z</time>
      </trkpt>
      <trkpt lat="46.38932" lon="-0.33953">
        <ele>77.9</ele>
        <time>2012-07-24T19:08:33Z</time>
      </trkpt>
      <trkpt lat="46.38969" lon="-0.33917">
        <ele>82.9</ele>
        <time>2012-07-24T19:08:40Z</time>
      </trkpt>
      <trkpt lat="46.38996" lon="-0.33889">
        <ele>83.9</ele>
        <time>2012-07-24T19:08:46Z</time>
      </trkpt>
      <trkpt lat="46.3902" lon="-0.33863">
        <ele>83.9</ele>
        <time>2012-07-24T19:08:52Z</time>
      </trkpt>
      <trkpt lat="46.39049" lon="-0.33834">
        <ele>83.9</ele>
        <time>2012-07-24T19:08:59Z</time>
      </trkpt>
      <trkpt lat="46.39075" lon="-0.33806">
        <ele>83.9</ele>
        <time>2012-07-24T19:09:05Z</time>
      </trkpt>
      <trkpt lat="46.39101" lon="-0.33778">
        <ele>82.9</ele>
        <time>2012-07-24T19:09:11Z</time>
      </trkpt>
      <trkpt lat="46.39125" lon="-0.33754">
        <ele>83.9</ele>
        <time>2012-07-24T19:09:17Z</time>
      </trkpt>
      <trkpt lat="46.39139" lon="-0.3374">
        <ele>83.9</ele>
        <time>2012-07-24T19:09:21Z</time>
      </trkpt>
      <trkpt lat="46.3916" lon="-0.33723">
        <ele>85.9</ele>
        <time>2012-07-24T19:09:27Z</time>
      </trkpt>
      <trkpt lat="46.39177" lon="-0.33704">
        <ele>86.9</ele>
        <time>2012-07-24T19:09:32Z</time>
      </trkpt>
      <trkpt lat="46.39192" lon="-0.3369">
        <ele>85.9</ele>
        <time>2012-07-24T19:09:36Z</time>
      </trkpt>
      <trkpt lat="46.39207" lon="-0.33677">
        <ele>85.9</ele>
        <time>2012-07-24T19:09:40Z</time>
      </trkpt>
      <trkpt lat="46.39238" lon="-0.33653">
        <ele>85</ele>
        <time>2012-07-24T19:09:48Z</time>
      </trkpt>
      <trkpt lat="46.39254" lon="-0.33642">
        <ele>84</ele>
        <time>2012-07-24T19:09:52Z</time>
      </trkpt>
      <trkpt lat="46.39279" lon="-0.33625">
        <ele>84</ele>
        <time>2012-07-24T19:09:58Z</time>
      </trkpt>
      <trkpt lat="46.39306" lon="-0.33606">
        <ele>84</ele>
        <time>2012-07-24T19:10:04Z</time>
      </trkpt>
      <trkpt lat="46.39324" lon="-0.33593">
        <ele>83</ele>
        <time>2012-07-24T19:10:08Z</time>
      </trkpt>
      <trkpt lat="46.3935" lon="-0.33575">
        <ele>83</ele>
        <time>2012-07-24T19:10:14Z</time>
      </trkpt>
      <trkpt lat="46.39377" lon="-0.33558">
        <ele>86</ele>
        <time>2012-07-24T19:10:20Z</time>
      </trkpt>
      <trkpt lat="46.39405" lon="-0.3354">
        <ele>89</ele>
        <time>2012-07-24T19:10:26Z</time>
      </trkpt>
      <trkpt lat="46.39432" lon="-0.33521">
        <ele>90</ele>
        <time>2012-07-24T19:10:32Z</time>
      </trkpt>
      <trkpt lat="46.3946" lon="-0.33502">
        <ele>91</ele>
        <time>2012-07-24T19:10:38Z</time>
      </trkpt>
      <trkpt lat="46.39487" lon="-0.33483">
        <ele>91</ele>
        <time>2012-07-24T19:10:44Z</time>
      </trkpt>
      <trkpt lat="46.39513" lon="-0.33464">
        <ele>91</ele>
        <time>2012-07-24T19:10:50Z</time>
      </trkpt>
      <trkpt lat="46.3953" lon="-0.3345">
        <ele>91</ele>
        <time>2012-07-24T19:10:54Z</time>
      </trkpt>
      <trkpt lat="46.39554" lon="-0.33428">
        <ele>92</ele>
        <time>2012-07-24T19:11:00Z</time>
      </trkpt>
      <trkpt lat="46.3958" lon="-0.33408">
        <ele>89</ele>
        <time>2012-07-24T19:11:06Z</time>
      </trkpt>
      <trkpt lat="46.39605" lon="-0.33384">
        <ele>90</ele>
        <time>2012-07-24T19:11:12Z</time>
      </trkpt>
      <trkpt lat="46.39625" lon="-0.33355">
        <ele>89</ele>
        <time>2012-07-24T19:11:18Z</time>
      </trkpt>
      <trkpt lat="46.39646" lon="-0.33324">
        <ele>89</ele>
        <time>2012-07-24T19:11:24Z</time>
      </trkpt>
      <trkpt lat="46.39665" lon="-0.33291">
        <ele>92</ele>
        <time>2012-07-24T19:11:30Z</time>
      </trkpt>
      <trkpt lat="46.39673" lon="-0.33256">
        <ele>93</ele>
        <time>2012-07-24T19:11:35Z</time>
      </trkpt>
      <trkpt lat="46.39678" lon="-0.33227">
        <ele>93</ele>
        <time>2012-07-24T19:11:39Z</time>
      </trkpt>
      <trkpt lat="46.39681" lon="-0.33184">
        <ele>91</ele>
        <time>2012-07-24T19:11:45Z</time>
      </trkpt>
      <trkpt lat="46.39684" lon="-0.33138">
        <ele>91</ele>
        <time>2012-07-24T19:11:51Z</time>
      </trkpt>
      <trkpt lat="46.39688" lon="-0.33099">
        <ele>91</ele>
        <time>2012-07-24T19:11:56Z</time>
      </trkpt>
      <trkpt lat="46.39699" lon="-0.33054">
        <ele>89</ele>
        <time>2012-07-24T19:12:02Z</time>
      </trkpt>
      <trkpt lat="46.39714" lon="-0.33014">
        <ele>87</ele>
        <time>2012-07-24T19:12:08Z</time>
      </trkpt>
      <trkpt lat="46.39736" lon="-0.32989">
        <ele>87</ele>
        <time>2012-07-24T19:12:14Z</time>
      </trkpt>
      <trkpt lat="46.39762" lon="-0.32965">
        <ele>87</ele>
        <time>2012-07-24T19:12:21Z</time>
      </trkpt>
      <trkpt lat="46.39776" lon="-0.32949">
        <ele>87</ele>
        <time>2012-07-24T19:12:25Z</time>
      </trkpt>
      <trkpt lat="46.39801" lon="-0.32921">
        <ele>87</ele>
        <time>2012-07-24T19:12:32Z</time>
      </trkpt>
      <trkpt lat="46.39828" lon="-0.32897">
        <ele>85</ele>
        <time>2012-07-24T19:12:39Z</time>
      </trkpt>
      <trkpt lat="46.39843" lon="-0.32884">
        <ele>84</ele>
        <time>2012-07-24T19:12:43Z</time>
      </trkpt>
      <trkpt lat="46.39858" lon="-0.3287">
        <ele>83</ele>
        <time>2012-07-24T19:12:47Z</time>
      </trkpt>
      <trkpt lat="46.39884" lon="-0.32844">
        <ele>82</ele>
        <time>2012-07-24T19:12:54Z</time>
      </trkpt>
      <trkpt lat="46.39898" lon="-0.32829">
        <ele>83</ele>
        <time>2012-07-24T19:12:58Z</time>
      </trkpt>
      <trkpt lat="46.39917" lon="-0.32812">
        <ele>84</ele>
        <time>2012-07-24T19:13:03Z</time>
      </trkpt>
      <trkpt lat="46.39933" lon="-0.32799">
        <ele>84</ele>
        <time>2012-07-24T19:13:07Z</time>
      </trkpt>
      <trkpt lat="46.39948" lon="-0.32786">
        <ele>85</ele>
        <time>2012-07-24T19:13:11Z</time>
      </trkpt>
      <trkpt lat="46.39974" lon="-0.3276">
        <ele>86</ele>
        <time>2012-07-24T19:13:18Z</time>
      </trkpt>
      <trkpt lat="46.39996" lon="-0.32735">
        <ele>87</ele>
        <time>2012-07-24T19:13:24Z</time>
      </trkpt>
      <trkpt lat="46.40017" lon="-0.32709">
        <ele>89</ele>
        <time>2012-07-24T19:13:30Z</time>
      </trkpt>
      <trkpt lat="46.40037" lon="-0.32675">
        <ele>90</ele>
        <time>2012-07-24T19:13:37Z</time>
      </trkpt>
      <trkpt lat="46.40054" lon="-0.32642">
        <ele>91</ele>
        <time>2012-07-24T19:13:44Z</time>
      </trkpt>
      <trkpt lat="46.40064" lon="-0.32624">
        <ele>92</ele>
        <time>2012-07-24T19:13:48Z</time>
      </trkpt>
      <trkpt lat="46.40078" lon="-0.32601">
        <ele>92</ele>
        <time>2012-07-24T19:13:53Z</time>
      </trkpt>
      <trkpt lat="46.4009" lon="-0.32584">
        <ele>92</ele>
        <time>2012-07-24T19:13:57Z</time>
      </trkpt>
      <trkpt lat="46.40114" lon="-0.32553">
        <ele>92</ele>
        <time>2012-07-24T19:14:05Z</time>
      </trkpt>
      <trkpt lat="46.40139" lon="-0.32522">
        <ele>90</ele>
        <time>2012-07-24T19:14:13Z</time>
      </trkpt>
      <trkpt lat="46.40164" lon="-0.32491">
        <ele>89</ele>
        <time>2012-07-24T19:14:21Z</time>
      </trkpt>
      <trkpt lat="46.40177" lon="-0.32474">
        <ele>90</ele>
        <time>2012-07-24T19:14:25Z</time>
      </trkpt>
      <trkpt lat="46.40188" lon="-0.32457">
        <ele>91</ele>
        <time>2012-07-24T19:14:30Z</time>
      </trkpt>
      <trkpt lat="46.40199" lon="-0.3244">
        <ele>92</ele>
        <time>2012-07-24T19:14:34Z</time>
      </trkpt>
      <trkpt lat="46.40212" lon="-0.32417">
        <ele>93</ele>
        <time>2012-07-24T19:14:39Z</time>
      </trkpt>
      <trkpt lat="46.40234" lon="-0.32386">
        <ele>93</ele>
        <time>2012-07-24T19:14:46Z</time>
      </trkpt>
      <trkpt lat="46.40256" lon="-0.32359">
        <ele>94</ele>
        <time>2012-07-24T19:14:52Z</time>
      </trkpt>
      <trkpt lat="46.40278" lon="-0.32336">
        <ele>94</ele>
        <time>2012-07-24T19:14:58Z</time>
      </trkpt>
      <trkpt lat="46.40299" lon="-0.32311">
        <ele>95</ele>
        <time>2012-07-24T19:15:04Z</time>
      </trkpt>
      <trkpt lat="46.40328" lon="-0.32282">
        <ele>94</ele>
        <time>2012-07-24T19:15:12Z</time>
      </trkpt>
      <trkpt lat="46.40343" lon="-0.32269">
        <ele>94</ele>
        <time>2012-07-24T19:15:16Z</time>
      </trkpt>
      <trkpt lat="46.40373" lon="-0.32248">
        <ele>94</ele>
        <time>2012-07-24T19:15:24Z</time>
      </trkpt>
      <trkpt lat="46.40399" lon="-0.32232">
        <ele>94</ele>
        <time>2012-07-24T19:15:30Z</time>
      </trkpt>
      <trkpt lat="46.40428" lon="-0.3222">
        <ele>96</ele>
        <time>2012-07-24T19:15:36Z</time>
      </trkpt>
      <trkpt lat="46.40453" lon="-0.32201">
        <ele>97</ele>
        <time>2012-07-24T19:15:42Z</time>
      </trkpt>
      <trkpt lat="46.40477" lon="-0.32178">
        <ele>98</ele>
        <time>2012-07-24T19:15:48Z</time>
      </trkpt>
      <trkpt lat="46.405" lon="-0.32155">
        <ele>99</ele>
        <time>2012-07-24T19:15:54Z</time>
      </trkpt>
      <trkpt lat="46.40524" lon="-0.32127">
        <ele>100</ele>
        <time>2012-07-24T19:16:01Z</time>
      </trkpt>
      <trkpt lat="46.40545" lon="-0.32093">
        <ele>100</ele>
        <time>2012-07-24T19:16:09Z</time>
      </trkpt>
      <trkpt lat="46.40556" lon="-0.32076">
        <ele>100</ele>
        <time>2012-07-24T19:16:13Z</time>
      </trkpt>
      <trkpt lat="46.40579" lon="-0.32039">
        <ele>100</ele>
        <time>2012-07-24T19:16:21Z</time>
      </trkpt>
      <trkpt lat="46.40594" lon="-0.32007">
        <ele>101</ele>
        <time>2012-07-24T19:16:27Z</time>
      </trkpt>
      <trkpt lat="46.40604" lon="-0.31985">
        <ele>103</ele>
        <time>2012-07-24T19:16:31Z</time>
      </trkpt>
      <trkpt lat="46.40619" lon="-0.31948">
        <ele>-49</ele>
        <time>2012-07-24T19:16:52Z</time>
      </trkpt>
      <trkpt lat="46.40665" lon="-0.31871">
        <ele>100</ele>
        <time>2012-07-24T19:17:03Z</time>
      </trkpt>
      <trkpt lat="46.40683" lon="-0.31831">
        <ele>98</ele>
        <time>2012-07-24T19:17:08Z</time>
      </trkpt>
      <trkpt lat="46.40698" lon="-0.31783">
        <ele>97</ele>
        <time>2012-07-24T19:17:12Z</time>
      </trkpt>
      <trkpt lat="46.40716" lon="-0.31698">
        <ele>96</ele>
        <time>2012-07-24T19:17:18Z</time>
      </trkpt>
      <trkpt lat="46.40729" lon="-0.3162">
        <ele>97</ele>
        <time>2012-07-24T19:17:24Z</time>
      </trkpt>
      <trkpt lat="46.40746" lon="-0.31553">
        <ele>97</ele>
        <time>2012-07-24T19:17:30Z</time>
      </trkpt>
      <trkpt lat="46.40762" lon="-0.31517">
        <ele>96</ele>
        <time>2012-07-24T19:17:34Z</time>
      </trkpt>
      <trkpt lat="46.40782" lon="-0.31479">
        <ele>95</ele>
        <time>2012-07-24T19:17:39Z</time>
      </trkpt>
      <trkpt lat="46.40799" lon="-0.31457">
        <ele>94</ele>
        <time>2012-07-24T19:17:43Z</time>
      </trkpt>
      <trkpt lat="46.40828" lon="-0.31433">
        <ele>95</ele>
        <time>2012-07-24T19:17:49Z</time>
      </trkpt>
      <trkpt lat="46.40862" lon="-0.31412">
        <ele>94</ele>
        <time>2012-07-24T19:17:55Z</time>
      </trkpt>
      <trkpt lat="46.40897" lon="-0.31395">
        <ele>94</ele>
        <time>2012-07-24T19:18:01Z</time>
      </trkpt>
      <trkpt lat="46.40921" lon="-0.31384">
        <ele>95</ele>
        <time>2012-07-24T19:18:05Z</time>
      </trkpt>
      <trkpt lat="46.40955" lon="-0.31367">
        <ele>94</ele>
        <time>2012-07-24T19:18:11Z</time>
      </trkpt>
      <trkpt lat="46.40993" lon="-0.31344">
        <ele>93</ele>
        <time>2012-07-24T19:18:18Z</time>
      </trkpt>
      <trkpt lat="46.41024" lon="-0.31323">
        <ele>93</ele>
        <time>2012-07-24T19:18:24Z</time>
      </trkpt>
      <trkpt lat="46.41056" lon="-0.31304">
        <ele>94</ele>
        <time>2012-07-24T19:18:30Z</time>
      </trkpt>
      <trkpt lat="46.41088" lon="-0.31282">
        <ele>95</ele>
        <time>2012-07-24T19:18:36Z</time>
      </trkpt>
      <trkpt lat="46.41109" lon="-0.31267">
        <ele>97</ele>
        <time>2012-07-24T19:18:40Z</time>
      </trkpt>
      <trkpt lat="46.4114" lon="-0.3125">
        <ele>99</ele>
        <time>2012-07-24T19:18:46Z</time>
      </trkpt>
      <trkpt lat="46.4116" lon="-0.31241">
        <ele>101</ele>
        <time>2012-07-24T19:18:50Z</time>
      </trkpt>
      <trkpt lat="46.41195" lon="-0.31228">
        <ele>101</ele>
        <time>2012-07-24T19:18:57Z</time>
      </trkpt>
      <trkpt lat="46.41225" lon="-0.31221">
        <ele>102</ele>
        <time>2012-07-24T19:19:03Z</time>
      </trkpt>
      <trkpt lat="46.41254" lon="-0.31214">
        <ele>101</ele>
        <time>2012-07-24T19:19:09Z</time>
      </trkpt>
      <trkpt lat="46.41283" lon="-0.31206">
        <ele>101</ele>
        <time>2012-07-24T19:19:15Z</time>
      </trkpt>
      <trkpt lat="46.41312" lon="-0.31199">
        <ele>102</ele>
        <time>2012-07-24T19:19:21Z</time>
      </trkpt>
      <trkpt lat="46.41341" lon="-0.31189">
        <ele>101</ele>
        <time>2012-07-24T19:19:27Z</time>
      </trkpt>
      <trkpt lat="46.41364" lon="-0.31176">
        <ele>101</ele>
        <time>2012-07-24T19:19:32Z</time>
      </trkpt>
      <trkpt lat="46.41389" lon="-0.31176">
        <ele>100</ele>
        <time>2012-07-24T19:19:37Z</time>
      </trkpt>
      <trkpt lat="46.41422" lon="-0.31188">
        <ele>101</ele>
        <time>2012-07-24T19:19:42Z</time>
      </trkpt>
      <trkpt lat="46.41449" lon="-0.31202">
        <ele>101</ele>
        <time>2012-07-24T19:19:46Z</time>
      </trkpt>
      <trkpt lat="46.41475" lon="-0.31217">
        <ele>102</ele>
        <time>2012-07-24T19:19:50Z</time>
      </trkpt>
      <trkpt lat="46.41513" lon="-0.31243">
        <ele>102</ele>
        <time>2012-07-24T19:19:56Z</time>
      </trkpt>
      <trkpt lat="46.4155" lon="-0.31257">
        <ele>102</ele>
        <time>2012-07-24T19:20:02Z</time>
      </trkpt>
      <trkpt lat="46.41588" lon="-0.31263">
        <ele>104</ele>
        <time>2012-07-24T19:20:08Z</time>
      </trkpt>
      <trkpt lat="46.41624" lon="-0.31269">
        <ele>105</ele>
        <time>2012-07-24T19:20:14Z</time>
      </trkpt>
      <trkpt lat="46.4166" lon="-0.31274">
        <ele>107</ele>
        <time>2012-07-24T19:20:20Z</time>
      </trkpt>
      <trkpt lat="46.41699" lon="-0.3128">
        <ele>108</ele>
        <time>2012-07-24T19:20:26Z</time>
      </trkpt>
      <trkpt lat="46.4174" lon="-0.31287">
        <ele>107</ele>
        <time>2012-07-24T19:20:32Z</time>
      </trkpt>
      <trkpt lat="46.41781" lon="-0.31294">
        <ele>107</ele>
        <time>2012-07-24T19:20:38Z</time>
      </trkpt>
      <trkpt lat="46.41809" lon="-0.31298">
        <ele>107</ele>
        <time>2012-07-24T19:20:42Z</time>
      </trkpt>
      <trkpt lat="46.41844" lon="-0.313">
        <ele>107</ele>
        <time>2012-07-24T19:20:47Z</time>
      </trkpt>
      <trkpt lat="46.41885" lon="-0.31309">
        <ele>109</ele>
        <time>2012-07-24T19:20:53Z</time>
      </trkpt>
      <trkpt lat="46.41927" lon="-0.31315">
        <ele>109</ele>
        <time>2012-07-24T19:20:59Z</time>
      </trkpt>
      <trkpt lat="46.41967" lon="-0.31317">
        <ele>109</ele>
        <time>2012-07-24T19:21:04Z</time>
      </trkpt>
      <trkpt lat="46.42" lon="-0.3132">
        <ele>108</ele>
        <time>2012-07-24T19:21:08Z</time>
      </trkpt>
      <trkpt lat="46.42045" lon="-0.31319">
        <ele>107</ele>
        <time>2012-07-24T19:21:13Z</time>
      </trkpt>
      <trkpt lat="46.42089" lon="-0.31319">
        <ele>105</ele>
        <time>2012-07-24T19:21:18Z</time>
      </trkpt>
      <trkpt lat="46.42124" lon="-0.3132">
        <ele>106</ele>
        <time>2012-07-24T19:21:22Z</time>
      </trkpt>
      <trkpt lat="46.42175" lon="-0.31323">
        <ele>106</ele>
        <time>2012-07-24T19:21:28Z</time>
      </trkpt>
      <trkpt lat="46.42208" lon="-0.31323">
        <ele>106</ele>
        <time>2012-07-24T19:21:32Z</time>
      </trkpt>
      <trkpt lat="46.42255" lon="-0.3132">
        <ele>106</ele>
        <time>2012-07-24T19:21:38Z</time>
      </trkpt>
      <trkpt lat="46.42285" lon="-0.31312">
        <ele>106</ele>
        <time>2012-07-24T19:21:42Z</time>
      </trkpt>
      <trkpt lat="46.4232" lon="-0.31296">
        <ele>106</ele>
        <time>2012-07-24T19:21:47Z</time>
      </trkpt>
      <trkpt lat="46.42352" lon="-0.31274">
        <ele>105</ele>
        <time>2012-07-24T19:21:53Z</time>
      </trkpt>
      <trkpt lat="46.4238" lon="-0.31252">
        <ele>104</ele>
        <time>2012-07-24T19:21:59Z</time>
      </trkpt>
      <trkpt lat="46.42404" lon="-0.31229">
        <ele>103</ele>
        <time>2012-07-24T19:22:05Z</time>
      </trkpt>
      <trkpt lat="46.42432" lon="-0.31206">
        <ele>102</ele>
        <time>2012-07-24T19:22:13Z</time>
      </trkpt>
      <trkpt lat="46.42461" lon="-0.31185">
        <ele>103</ele>
        <time>2012-07-24T19:22:21Z</time>
      </trkpt>
      <trkpt lat="46.42474" lon="-0.31173">
        <ele>107</ele>
        <time>2012-07-24T19:22:26Z</time>
      </trkpt>
      <trkpt lat="46.42502" lon="-0.3115">
        <ele>110</ele>
        <time>2012-07-24T19:22:34Z</time>
      </trkpt>
      <trkpt lat="46.42516" lon="-0.31139">
        <ele>109</ele>
        <time>2012-07-24T19:22:38Z</time>
      </trkpt>
      <trkpt lat="46.42544" lon="-0.31117">
        <ele>110</ele>
        <time>2012-07-24T19:22:45Z</time>
      </trkpt>
      <trkpt lat="46.42571" lon="-0.31096">
        <ele>110</ele>
        <time>2012-07-24T19:22:52Z</time>
      </trkpt>
      <trkpt lat="46.42584" lon="-0.31085">
        <ele>108</ele>
        <time>2012-07-24T19:22:57Z</time>
      </trkpt>
      <trkpt lat="46.42597" lon="-0.31077">
        <ele>108</ele>
        <time>2012-07-24T19:23:01Z</time>
      </trkpt>
      <trkpt lat="46.42624" lon="-0.3106">
        <ele>108</ele>
        <time>2012-07-24T19:23:09Z</time>
      </trkpt>
      <trkpt lat="46.42637" lon="-0.31051">
        <ele>109</ele>
        <time>2012-07-24T19:23:14Z</time>
      </trkpt>
      <trkpt lat="46.42652" lon="-0.31042">
        <ele>110</ele>
        <time>2012-07-24T19:23:20Z</time>
      </trkpt>
      <trkpt lat="46.42666" lon="-0.31036">
        <ele>111</ele>
        <time>2012-07-24T19:23:24Z</time>
      </trkpt>
      <trkpt lat="46.42698" lon="-0.31029">
        <ele>113</ele>
        <time>2012-07-24T19:23:31Z</time>
      </trkpt>
      <trkpt lat="46.42716" lon="-0.31026">
        <ele>114</ele>
        <time>2012-07-24T19:23:35Z</time>
      </trkpt>
      <trkpt lat="46.42748" lon="-0.31019">
        <ele>114</ele>
        <time>2012-07-24T19:23:42Z</time>
      </trkpt>
      <trkpt lat="46.42778" lon="-0.31017">
        <ele>113</ele>
        <time>2012-07-24T19:23:48Z</time>
      </trkpt>
      <trkpt lat="46.42809" lon="-0.31018">
        <ele>113</ele>
        <time>2012-07-24T19:23:53Z</time>
      </trkpt>
      <trkpt lat="46.42845" lon="-0.31013">
        <ele>113</ele>
        <time>2012-07-24T19:23:59Z</time>
      </trkpt>
      <trkpt lat="46.42882" lon="-0.31006">
        <ele>115</ele>
        <time>2012-07-24T19:24:05Z</time>
      </trkpt>
      <trkpt lat="46.42916" lon="-0.31002">
        <ele>114</ele>
        <time>2012-07-24T19:24:10Z</time>
      </trkpt>
      <trkpt lat="46.42953" lon="-0.30999">
        <ele>113</ele>
        <time>2012-07-24T19:24:16Z</time>
      </trkpt>
      <trkpt lat="46.42989" lon="-0.30996">
        <ele>113</ele>
        <time>2012-07-24T19:24:22Z</time>
      </trkpt>
      <trkpt lat="46.43021" lon="-0.30988">
        <ele>116</ele>
        <time>2012-07-24T19:24:27Z</time>
      </trkpt>
      <trkpt lat="46.43057" lon="-0.30978">
        <ele>120</ele>
        <time>2012-07-24T19:24:33Z</time>
      </trkpt>
      <trkpt lat="46.43091" lon="-0.30964">
        <ele>120</ele>
        <time>2012-07-24T19:24:39Z</time>
      </trkpt>
      <trkpt lat="46.43124" lon="-0.30949">
        <ele>121</ele>
        <time>2012-07-24T19:24:45Z</time>
      </trkpt>
      <trkpt lat="46.43159" lon="-0.30931">
        <ele>121</ele>
        <time>2012-07-24T19:24:51Z</time>
      </trkpt>
      <trkpt lat="46.43194" lon="-0.30912">
        <ele>121</ele>
        <time>2012-07-24T19:24:57Z</time>
      </trkpt>
      <trkpt lat="46.43229" lon="-0.30895">
        <ele>122</ele>
        <time>2012-07-24T19:25:03Z</time>
      </trkpt>
      <trkpt lat="46.43268" lon="-0.30876">
        <ele>122</ele>
        <time>2012-07-24T19:25:10Z</time>
      </trkpt>
      <trkpt lat="46.43301" lon="-0.30859">
        <ele>121</ele>
        <time>2012-07-24T19:25:16Z</time>
      </trkpt>
      <trkpt lat="46.43333" lon="-0.30843">
        <ele>121</ele>
        <time>2012-07-24T19:25:22Z</time>
      </trkpt>
      <trkpt lat="46.43363" lon="-0.30827">
        <ele>128</ele>
        <time>2012-07-24T19:25:28Z</time>
      </trkpt>
      <trkpt lat="46.43389" lon="-0.30811">
        <ele>131</ele>
        <time>2012-07-24T19:25:33Z</time>
      </trkpt>
      <trkpt lat="46.43421" lon="-0.3079">
        <ele>133</ele>
        <time>2012-07-24T19:25:39Z</time>
      </trkpt>
      <trkpt lat="46.43442" lon="-0.30776">
        <ele>133</ele>
        <time>2012-07-24T19:25:43Z</time>
      </trkpt>
      <trkpt lat="46.43475" lon="-0.30757">
        <ele>133</ele>
        <time>2012-07-24T19:25:49Z</time>
      </trkpt>
      <trkpt lat="46.43509" lon="-0.30742">
        <ele>133</ele>
        <time>2012-07-24T19:25:55Z</time>
      </trkpt>
      <trkpt lat="46.43538" lon="-0.30733">
        <ele>132</ele>
        <time>2012-07-24T19:26:00Z</time>
      </trkpt>
      <trkpt lat="46.43574" lon="-0.30722">
        <ele>131</ele>
        <time>2012-07-24T19:26:06Z</time>
      </trkpt>
      <trkpt lat="46.4361" lon="-0.3071">
        <ele>131</ele>
        <time>2012-07-24T19:26:12Z</time>
      </trkpt>
      <trkpt lat="46.43645" lon="-0.30697">
        <ele>131</ele>
        <time>2012-07-24T19:26:18Z</time>
      </trkpt>
      <trkpt lat="46.43682" lon="-0.30685">
        <ele>131</ele>
        <time>2012-07-24T19:26:24Z</time>
      </trkpt>
      <trkpt lat="46.43719" lon="-0.30669">
        <ele>133</ele>
        <time>2012-07-24T19:26:31Z</time>
      </trkpt>
      <trkpt lat="46.4375" lon="-0.30655">
        <ele>133</ele>
        <time>2012-07-24T19:26:36Z</time>
      </trkpt>
      <trkpt lat="46.43788" lon="-0.3064">
        <ele>132</ele>
        <time>2012-07-24T19:26:41Z</time>
      </trkpt>
      <trkpt lat="46.43827" lon="-0.3063">
        <ele>131</ele>
        <time>2012-07-24T19:26:46Z</time>
      </trkpt>
      <trkpt lat="46.43857" lon="-0.30621">
        <ele>130</ele>
        <time>2012-07-24T19:26:50Z</time>
      </trkpt>
      <trkpt lat="46.43899" lon="-0.30602">
        <ele>128</ele>
        <time>2012-07-24T19:26:56Z</time>
      </trkpt>
      <trkpt lat="46.43923" lon="-0.30589">
        <ele>128</ele>
        <time>2012-07-24T19:27:00Z</time>
      </trkpt>
      <trkpt lat="46.43953" lon="-0.30569">
        <ele>127</ele>
        <time>2012-07-24T19:27:06Z</time>
      </trkpt>
      <trkpt lat="46.43982" lon="-0.30551">
        <ele>125</ele>
        <time>2012-07-24T19:27:12Z</time>
      </trkpt>
      <trkpt lat="46.44009" lon="-0.30532">
        <ele>125</ele>
        <time>2012-07-24T19:27:18Z</time>
      </trkpt>
      <trkpt lat="46.44024" lon="-0.3052">
        <ele>125</ele>
        <time>2012-07-24T19:27:22Z</time>
      </trkpt>
      <trkpt lat="46.44049" lon="-0.305">
        <ele>125</ele>
        <time>2012-07-24T19:27:28Z</time>
      </trkpt>
      <trkpt lat="46.44077" lon="-0.30473">
        <ele>132</ele>
        <time>2012-07-24T19:27:35Z</time>
      </trkpt>
      <trkpt lat="46.44108" lon="-0.30448">
        <ele>135</ele>
        <time>2012-07-24T19:27:43Z</time>
      </trkpt>
      <trkpt lat="46.4413" lon="-0.30432">
        <ele>135</ele>
        <time>2012-07-24T19:27:49Z</time>
      </trkpt>
      <trkpt lat="46.44147" lon="-0.30418">
        <ele>135</ele>
        <time>2012-07-24T19:27:54Z</time>
      </trkpt>
      <trkpt lat="46.4417" lon="-0.30403">
        <ele>134</ele>
        <time>2012-07-24T19:28:00Z</time>
      </trkpt>
      <trkpt lat="46.44186" lon="-0.30395">
        <ele>134</ele>
        <time>2012-07-24T19:28:04Z</time>
      </trkpt>
      <trkpt lat="46.44215" lon="-0.30417">
        <ele>130</ele>
        <time>2012-07-24T19:28:11Z</time>
      </trkpt>
      <trkpt lat="46.44221" lon="-0.30459">
        <ele>123</ele>
        <time>2012-07-24T19:28:15Z</time>
      </trkpt>
      <trkpt lat="46.44221" lon="-0.30523">
        <ele>116</ele>
        <time>2012-07-24T19:28:21Z</time>
      </trkpt>
      <trkpt lat="46.44219" lon="-0.30577">
        <ele>115</ele>
        <time>2012-07-24T19:28:25Z</time>
      </trkpt>
      <trkpt lat="46.44219" lon="-0.30633">
        <ele>114</ele>
        <time>2012-07-24T19:28:29Z</time>
      </trkpt>
      <trkpt lat="46.44222" lon="-0.30691">
        <ele>116</ele>
        <time>2012-07-24T19:28:33Z</time>
      </trkpt>
      <trkpt lat="46.44226" lon="-0.30787">
        <ele>120</ele>
        <time>2012-07-24T19:28:39Z</time>
      </trkpt>
      <trkpt lat="46.4423" lon="-0.30855">
        <ele>121</ele>
        <time>2012-07-24T19:28:43Z</time>
      </trkpt>
      <trkpt lat="46.44228" lon="-0.30924">
        <ele>124</ele>
        <time>2012-07-24T19:28:47Z</time>
      </trkpt>
      <trkpt lat="46.4423" lon="-0.31024">
        <ele>123</ele>
        <time>2012-07-24T19:28:53Z</time>
      </trkpt>
      <trkpt lat="46.44248" lon="-0.31109">
        <ele>122</ele>
        <time>2012-07-24T19:28:58Z</time>
      </trkpt>
      <trkpt lat="46.44285" lon="-0.31189">
        <ele>122</ele>
        <time>2012-07-24T19:29:03Z</time>
      </trkpt>
      <trkpt lat="46.44311" lon="-0.31247">
        <ele>123</ele>
        <time>2012-07-24T19:29:07Z</time>
      </trkpt>
      <trkpt lat="46.44342" lon="-0.31305">
        <ele>124</ele>
        <time>2012-07-24T19:29:14Z</time>
      </trkpt>
      <trkpt lat="46.44361" lon="-0.31341">
        <ele>125</ele>
        <time>2012-07-24T19:29:22Z</time>
      </trkpt>
      <trkpt lat="46.4437" lon="-0.3136">
        <ele>124</ele>
        <time>2012-07-24T19:29:26Z</time>
      </trkpt>
      <trkpt lat="46.44392" lon="-0.31398">
        <ele>125</ele>
        <time>2012-07-24T19:29:34Z</time>
      </trkpt>
      <trkpt lat="46.4441" lon="-0.31434">
        <ele>125</ele>
        <time>2012-07-24T19:29:41Z</time>
      </trkpt>
      <trkpt lat="46.44424" lon="-0.3147">
        <ele>125</ele>
        <time>2012-07-24T19:29:47Z</time>
      </trkpt>
      <trkpt lat="46.44439" lon="-0.31505">
        <ele>127</ele>
        <time>2012-07-24T19:29:53Z</time>
      </trkpt>
      <trkpt lat="46.4445" lon="-0.3154">
        <ele>127</ele>
        <time>2012-07-24T19:29:59Z</time>
      </trkpt>
      <trkpt lat="46.44463" lon="-0.31583">
        <ele>126</ele>
        <time>2012-07-24T19:30:06Z</time>
      </trkpt>
      <trkpt lat="46.44475" lon="-0.31628">
        <ele>125</ele>
        <time>2012-07-24T19:30:14Z</time>
      </trkpt>
      <trkpt lat="46.44489" lon="-0.31671">
        <ele>124</ele>
        <time>2012-07-24T19:30:22Z</time>
      </trkpt>
      <trkpt lat="46.44506" lon="-0.31712">
        <ele>124</ele>
        <time>2012-07-24T19:30:30Z</time>
      </trkpt>
      <trkpt lat="46.44514" lon="-0.31733">
        <ele>124</ele>
        <time>2012-07-24T19:30:34Z</time>
      </trkpt>
      <trkpt lat="46.4453" lon="-0.31777">
        <ele>123</ele>
        <time>2012-07-24T19:30:42Z</time>
      </trkpt>
      <trkpt lat="46.44548" lon="-0.31821">
        <ele>124</ele>
        <time>2012-07-24T19:30:50Z</time>
      </trkpt>
      <trkpt lat="46.44566" lon="-0.31861">
        <ele>130</ele>
        <time>2012-07-24T19:30:58Z</time>
      </trkpt>
      <trkpt lat="46.44585" lon="-0.31899">
        <ele>131</ele>
        <time>2012-07-24T19:31:06Z</time>
      </trkpt>
      <trkpt lat="46.44604" lon="-0.31938">
        <ele>131</ele>
        <time>2012-07-24T19:31:14Z</time>
      </trkpt>
      <trkpt lat="46.44618" lon="-0.31968">
        <ele>131</ele>
        <time>2012-07-24T19:31:20Z</time>
      </trkpt>
      <trkpt lat="46.44636" lon="-0.32005">
        <ele>130</ele>
        <time>2012-07-24T19:31:28Z</time>
      </trkpt>
      <trkpt lat="46.44645" lon="-0.32022">
        <ele>128</ele>
        <time>2012-07-24T19:31:32Z</time>
      </trkpt>
      <trkpt lat="46.44664" lon="-0.32055">
        <ele>128</ele>
        <time>2012-07-24T19:31:40Z</time>
      </trkpt>
      <trkpt lat="46.44675" lon="-0.3207">
        <ele>127</ele>
        <time>2012-07-24T19:31:44Z</time>
      </trkpt>
      <trkpt lat="46.44696" lon="-0.32103">
        <ele>125</ele>
        <time>2012-07-24T19:31:52Z</time>
      </trkpt>
      <trkpt lat="46.44717" lon="-0.32132">
        <ele>128</ele>
        <time>2012-07-24T19:31:59Z</time>
      </trkpt>
      <trkpt lat="46.44729" lon="-0.32149">
        <ele>129</ele>
        <time>2012-07-24T19:32:03Z</time>
      </trkpt>
      <trkpt lat="46.44752" lon="-0.32181">
        <ele>131</ele>
        <time>2012-07-24T19:32:11Z</time>
      </trkpt>
      <trkpt lat="46.44767" lon="-0.32202">
        <ele>132</ele>
        <time>2012-07-24T19:32:16Z</time>
      </trkpt>
      <trkpt lat="46.44779" lon="-0.32219">
        <ele>131</ele>
        <time>2012-07-24T19:32:20Z</time>
      </trkpt>
      <trkpt lat="46.44803" lon="-0.32251">
        <ele>132</ele>
        <time>2012-07-24T19:32:27Z</time>
      </trkpt>
      <trkpt lat="46.44818" lon="-0.3227">
        <ele>132</ele>
        <time>2012-07-24T19:32:31Z</time>
      </trkpt>
      <trkpt lat="46.44842" lon="-0.32303">
        <ele>131</ele>
        <time>2012-07-24T19:32:37Z</time>
      </trkpt>
      <trkpt lat="46.44864" lon="-0.3233">
        <ele>130</ele>
        <time>2012-07-24T19:32:41Z</time>
      </trkpt>
      <trkpt lat="46.44899" lon="-0.3238">
        <ele>128</ele>
        <time>2012-07-24T19:32:47Z</time>
      </trkpt>
      <trkpt lat="46.44932" lon="-0.32435">
        <ele>126</ele>
        <time>2012-07-24T19:32:54Z</time>
      </trkpt>
      <trkpt lat="46.44958" lon="-0.32476">
        <ele>125</ele>
        <time>2012-07-24T19:32:58Z</time>
      </trkpt>
      <trkpt lat="46.4498" lon="-0.32513">
        <ele>124</ele>
        <time>2012-07-24T19:33:02Z</time>
      </trkpt>
      <trkpt lat="46.45011" lon="-0.32563">
        <ele>121</ele>
        <time>2012-07-24T19:33:08Z</time>
      </trkpt>
      <trkpt lat="46.45037" lon="-0.326">
        <ele>119</ele>
        <time>2012-07-24T19:33:13Z</time>
      </trkpt>
      <trkpt lat="46.45063" lon="-0.3263">
        <ele>119</ele>
        <time>2012-07-24T19:33:18Z</time>
      </trkpt>
      <trkpt lat="46.45091" lon="-0.32657">
        <ele>121</ele>
        <time>2012-07-24T19:33:24Z</time>
      </trkpt>
      <trkpt lat="46.45115" lon="-0.3268">
        <ele>123</ele>
        <time>2012-07-24T19:33:30Z</time>
      </trkpt>
      <trkpt lat="46.45141" lon="-0.32707">
        <ele>122</ele>
        <time>2012-07-24T19:33:37Z</time>
      </trkpt>
      <trkpt lat="46.45169" lon="-0.32738">
        <ele>124</ele>
        <time>2012-07-24T19:33:45Z</time>
      </trkpt>
      <trkpt lat="46.45192" lon="-0.32762">
        <ele>125</ele>
        <time>2012-07-24T19:33:51Z</time>
      </trkpt>
      <trkpt lat="46.45215" lon="-0.32792">
        <ele>136</ele>
        <time>2012-07-24T19:33:57Z</time>
      </trkpt>
      <trkpt lat="46.45242" lon="-0.32824">
        <ele>140</ele>
        <time>2012-07-24T19:34:03Z</time>
      </trkpt>
      <trkpt lat="46.45266" lon="-0.32854">
        <ele>140</ele>
        <time>2012-07-24T19:34:08Z</time>
      </trkpt>
      <trkpt lat="46.45294" lon="-0.3289">
        <ele>140</ele>
        <time>2012-07-24T19:34:14Z</time>
      </trkpt>
      <trkpt lat="46.45316" lon="-0.32916">
        <ele>139</ele>
        <time>2012-07-24T19:34:19Z</time>
      </trkpt>
      <trkpt lat="46.45338" lon="-0.32948">
        <ele>138</ele>
        <time>2012-07-24T19:34:25Z</time>
      </trkpt>
      <trkpt lat="46.45355" lon="-0.32981">
        <ele>138</ele>
        <time>2012-07-24T19:34:31Z</time>
      </trkpt>
      <trkpt lat="46.45366" lon="-0.33001">
        <ele>137</ele>
        <time>2012-07-24T19:34:35Z</time>
      </trkpt>
      <trkpt lat="46.45376" lon="-0.33027">
        <ele>136</ele>
        <time>2012-07-24T19:34:40Z</time>
      </trkpt>
      <trkpt lat="46.4539" lon="-0.33072">
        <ele>135</ele>
        <time>2012-07-24T19:34:48Z</time>
      </trkpt>
      <trkpt lat="46.45399" lon="-0.33115">
        <ele>142</ele>
        <time>2012-07-24T19:34:55Z</time>
      </trkpt>
      <trkpt lat="46.45408" lon="-0.3315">
        <ele>146</ele>
        <time>2012-07-24T19:35:00Z</time>
      </trkpt>
      <trkpt lat="46.4542" lon="-0.33198">
        <ele>147</ele>
        <time>2012-07-24T19:35:05Z</time>
      </trkpt>
      <trkpt lat="46.45432" lon="-0.33244">
        <ele>147</ele>
        <time>2012-07-24T19:35:09Z</time>
      </trkpt>
      <trkpt lat="46.45452" lon="-0.33322">
        <ele>147</ele>
        <time>2012-07-24T19:35:15Z</time>
      </trkpt>
      <trkpt lat="46.45463" lon="-0.33376">
        <ele>147</ele>
        <time>2012-07-24T19:35:19Z</time>
      </trkpt>
      <trkpt lat="46.45475" lon="-0.33433">
        <ele>148</ele>
        <time>2012-07-24T19:35:23Z</time>
      </trkpt>
      <trkpt lat="46.45495" lon="-0.33522">
        <ele>147</ele>
        <time>2012-07-24T19:35:29Z</time>
      </trkpt>
      <trkpt lat="46.45514" lon="-0.33614">
        <ele>147</ele>
        <time>2012-07-24T19:35:35Z</time>
      </trkpt>
      <trkpt lat="46.45534" lon="-0.33695">
        <ele>147</ele>
        <time>2012-07-24T19:35:40Z</time>
      </trkpt>
      <trkpt lat="46.45552" lon="-0.33755">
        <ele>148</ele>
        <time>2012-07-24T19:35:44Z</time>
      </trkpt>
      <trkpt lat="46.45559" lon="-0.33814">
        <ele>148</ele>
        <time>2012-07-24T19:35:48Z</time>
      </trkpt>
      <trkpt lat="46.45549" lon="-0.33889">
        <ele>150</ele>
        <time>2012-07-24T19:35:54Z</time>
      </trkpt>
      <trkpt lat="46.45533" lon="-0.33928">
        <ele>150</ele>
        <time>2012-07-24T19:35:59Z</time>
      </trkpt>
      <trkpt lat="46.45521" lon="-0.33971">
        <ele>148</ele>
        <time>2012-07-24T19:36:05Z</time>
      </trkpt>
      <trkpt lat="46.45521" lon="-0.34013">
        <ele>148</ele>
        <time>2012-07-24T19:36:13Z</time>
      </trkpt>
      <trkpt lat="46.4552" lon="-0.34055">
        <ele>148</ele>
        <time>2012-07-24T19:36:21Z</time>
      </trkpt>
      <trkpt lat="46.45512" lon="-0.34081">
        <ele>150</ele>
        <time>2012-07-24T19:36:28Z</time>
      </trkpt>
      <trkpt lat="46.45504" lon="-0.34122">
        <ele>149</ele>
        <time>2012-07-24T19:36:36Z</time>
      </trkpt>
      <trkpt lat="46.45501" lon="-0.34143">
        <ele>149</ele>
        <time>2012-07-24T19:36:40Z</time>
      </trkpt>
      <trkpt lat="46.45497" lon="-0.34164">
        <ele>147</ele>
        <time>2012-07-24T19:36:44Z</time>
      </trkpt>
      <trkpt lat="46.45494" lon="-0.34186">
        <ele>147</ele>
        <time>2012-07-24T19:36:48Z</time>
      </trkpt>
      <trkpt lat="46.45492" lon="-0.3423">
        <ele>147</ele>
        <time>2012-07-24T19:36:56Z</time>
      </trkpt>
      <trkpt lat="46.45493" lon="-0.34271">
        <ele>145</ele>
        <time>2012-07-24T19:37:04Z</time>
      </trkpt>
      <trkpt lat="46.45495" lon="-0.34291">
        <ele>143</ele>
        <time>2012-07-24T19:37:08Z</time>
      </trkpt>
      <trkpt lat="46.45497" lon="-0.34316">
        <ele>143</ele>
        <time>2012-07-24T19:37:13Z</time>
      </trkpt>
      <trkpt lat="46.45499" lon="-0.34338">
        <ele>144</ele>
        <time>2012-07-24T19:37:17Z</time>
      </trkpt>
      <trkpt lat="46.45494" lon="-0.34375">
        <ele>147</ele>
        <time>2012-07-24T19:37:27Z</time>
      </trkpt>
      <trkpt lat="46.45474" lon="-0.34387">
        <ele>150</ele>
        <time>2012-07-24T19:37:31Z</time>
      </trkpt>
      <trkpt lat="46.45439" lon="-0.34407">
        <ele>153</ele>
        <time>2012-07-24T19:37:37Z</time>
      </trkpt>
      <trkpt lat="46.45413" lon="-0.34416">
        <ele>154</ele>
        <time>2012-07-24T19:37:41Z</time>
      </trkpt>
      <trkpt lat="46.45376" lon="-0.34423">
        <ele>154</ele>
        <time>2012-07-24T19:37:47Z</time>
      </trkpt>
      <trkpt lat="46.45328" lon="-0.3443">
        <ele>154</ele>
        <time>2012-07-24T19:37:53Z</time>
      </trkpt>
      <trkpt lat="46.45283" lon="-0.3445">
        <ele>152</ele>
        <time>2012-07-24T19:37:59Z</time>
      </trkpt>
      <trkpt lat="46.45244" lon="-0.3448">
        <ele>152</ele>
        <time>2012-07-24T19:38:05Z</time>
      </trkpt>
      <trkpt lat="46.45212" lon="-0.34507">
        <ele>151</ele>
        <time>2012-07-24T19:38:10Z</time>
      </trkpt>
      <trkpt lat="46.45165" lon="-0.34544">
        <ele>151</ele>
        <time>2012-07-24T19:38:16Z</time>
      </trkpt>
      <trkpt lat="46.45127" lon="-0.34578">
        <ele>151</ele>
        <time>2012-07-24T19:38:21Z</time>
      </trkpt>
      <trkpt lat="46.45099" lon="-0.34607">
        <ele>151</ele>
        <time>2012-07-24T19:38:25Z</time>
      </trkpt>
      <trkpt lat="46.45067" lon="-0.34637">
        <ele>154</ele>
        <time>2012-07-24T19:38:29Z</time>
      </trkpt>
      <trkpt lat="46.45033" lon="-0.34656">
        <ele>155</ele>
        <time>2012-07-24T19:38:33Z</time>
      </trkpt>
      <trkpt lat="46.44983" lon="-0.34676">
        <ele>155</ele>
        <time>2012-07-24T19:38:39Z</time>
      </trkpt>
      <trkpt lat="46.44952" lon="-0.3469">
        <ele>155</ele>
        <time>2012-07-24T19:38:43Z</time>
      </trkpt>
      <trkpt lat="46.44915" lon="-0.34716">
        <ele>154</ele>
        <time>2012-07-24T19:38:48Z</time>
      </trkpt>
      <trkpt lat="46.44873" lon="-0.34755">
        <ele>152</ele>
        <time>2012-07-24T19:38:54Z</time>
      </trkpt>
      <trkpt lat="46.44847" lon="-0.34777">
        <ele>152</ele>
        <time>2012-07-24T19:38:58Z</time>
      </trkpt>
      <trkpt lat="46.44807" lon="-0.34811">
        <ele>151</ele>
        <time>2012-07-24T19:39:04Z</time>
      </trkpt>
      <trkpt lat="46.44781" lon="-0.34832">
        <ele>151</ele>
        <time>2012-07-24T19:39:08Z</time>
      </trkpt>
      <trkpt lat="46.4474" lon="-0.34867">
        <ele>150</ele>
        <time>2012-07-24T19:39:14Z</time>
      </trkpt>
      <trkpt lat="46.44706" lon="-0.34899">
        <ele>149</ele>
        <time>2012-07-24T19:39:19Z</time>
      </trkpt>
      <trkpt lat="46.44681" lon="-0.34924">
        <ele>148</ele>
        <time>2012-07-24T19:39:23Z</time>
      </trkpt>
      <trkpt lat="46.44645" lon="-0.3496">
        <ele>147</ele>
        <time>2012-07-24T19:39:29Z</time>
      </trkpt>
      <trkpt lat="46.44624" lon="-0.34991">
        <ele>145</ele>
        <time>2012-07-24T19:39:37Z</time>
      </trkpt>
      <trkpt lat="46.44603" lon="-0.35026">
        <ele>143</ele>
        <time>2012-07-24T19:39:45Z</time>
      </trkpt>
      <trkpt lat="46.44578" lon="-0.35068">
        <ele>142</ele>
        <time>2012-07-24T19:39:50Z</time>
      </trkpt>
      <trkpt lat="46.44547" lon="-0.35121">
        <ele>139</ele>
        <time>2012-07-24T19:39:57Z</time>
      </trkpt>
      <trkpt lat="46.44529" lon="-0.3515">
        <ele>137</ele>
        <time>2012-07-24T19:40:03Z</time>
      </trkpt>
      <trkpt lat="46.44514" lon="-0.35172">
        <ele>136</ele>
        <time>2012-07-24T19:40:07Z</time>
      </trkpt>
      <trkpt lat="46.44494" lon="-0.35207">
        <ele>135</ele>
        <time>2012-07-24T19:40:12Z</time>
      </trkpt>
      <trkpt lat="46.44473" lon="-0.35241">
        <ele>135</ele>
        <time>2012-07-24T19:40:17Z</time>
      </trkpt>
      <trkpt lat="46.44444" lon="-0.35276">
        <ele>133</ele>
        <time>2012-07-24T19:40:23Z</time>
      </trkpt>
      <trkpt lat="46.4442" lon="-0.35306">
        <ele>133</ele>
        <time>2012-07-24T19:40:29Z</time>
      </trkpt>
      <trkpt lat="46.44396" lon="-0.35334">
        <ele>137</ele>
        <time>2012-07-24T19:40:35Z</time>
      </trkpt>
      <trkpt lat="46.44368" lon="-0.3536">
        <ele>138</ele>
        <time>2012-07-24T19:40:41Z</time>
      </trkpt>
      <trkpt lat="46.44334" lon="-0.35377">
        <ele>137</ele>
        <time>2012-07-24T19:40:47Z</time>
      </trkpt>
      <trkpt lat="46.44294" lon="-0.35396">
        <ele>135</ele>
        <time>2012-07-24T19:40:53Z</time>
      </trkpt>
      <trkpt lat="46.44266" lon="-0.35409">
        <ele>134</ele>
        <time>2012-07-24T19:40:57Z</time>
      </trkpt>
      <trkpt lat="46.44224" lon="-0.35428">
        <ele>133</ele>
        <time>2012-07-24T19:41:03Z</time>
      </trkpt>
      <trkpt lat="46.44197" lon="-0.35441">
        <ele>133</ele>
        <time>2012-07-24T19:41:07Z</time>
      </trkpt>
      <trkpt lat="46.44163" lon="-0.35455">
        <ele>132</ele>
        <time>2012-07-24T19:41:12Z</time>
      </trkpt>
      <trkpt lat="46.44132" lon="-0.35463">
        <ele>130</ele>
        <time>2012-07-24T19:41:16Z</time>
      </trkpt>
      <trkpt lat="46.44098" lon="-0.35468">
        <ele>130</ele>
        <time>2012-07-24T19:41:21Z</time>
      </trkpt>
      <trkpt lat="46.44073" lon="-0.35466">
        <ele>127</ele>
        <time>2012-07-24T19:41:25Z</time>
      </trkpt>
      <trkpt lat="46.44039" lon="-0.35467">
        <ele>123</ele>
        <time>2012-07-24T19:41:30Z</time>
      </trkpt>
      <trkpt lat="46.44006" lon="-0.35473">
        <ele>122</ele>
        <time>2012-07-24T19:41:35Z</time>
      </trkpt>
      <trkpt lat="46.43962" lon="-0.35481">
        <ele>120</ele>
        <time>2012-07-24T19:41:41Z</time>
      </trkpt>
      <trkpt lat="46.43912" lon="-0.35486">
        <ele>119</ele>
        <time>2012-07-24T19:41:47Z</time>
      </trkpt>
      <trkpt lat="46.43864" lon="-0.35486">
        <ele>117</ele>
        <time>2012-07-24T19:41:53Z</time>
      </trkpt>
      <trkpt lat="46.43825" lon="-0.35482">
        <ele>117</ele>
        <time>2012-07-24T19:41:58Z</time>
      </trkpt>
      <trkpt lat="46.43777" lon="-0.35455">
        <ele>118</ele>
        <time>2012-07-24T19:42:04Z</time>
      </trkpt>
      <trkpt lat="46.43745" lon="-0.35436">
        <ele>117</ele>
        <time>2012-07-24T19:42:08Z</time>
      </trkpt>
      <trkpt lat="46.437" lon="-0.35409">
        <ele>116</ele>
        <time>2012-07-24T19:42:13Z</time>
      </trkpt>
      <trkpt lat="46.43668" lon="-0.35389">
        <ele>116</ele>
        <time>2012-07-24T19:42:17Z</time>
      </trkpt>
      <trkpt lat="46.43627" lon="-0.35369">
        <ele>115</ele>
        <time>2012-07-24T19:42:22Z</time>
      </trkpt>
      <trkpt lat="46.43566" lon="-0.35356">
        <ele>113</ele>
        <time>2012-07-24T19:42:28Z</time>
      </trkpt>
      <trkpt lat="46.43521" lon="-0.35342">
        <ele>111</ele>
        <time>2012-07-24T19:42:34Z</time>
      </trkpt>
      <trkpt lat="46.43483" lon="-0.35353">
        <ele>109</ele>
        <time>2012-07-24T19:42:38Z</time>
      </trkpt>
      <trkpt lat="46.43418" lon="-0.35365">
        <ele>104</ele>
        <time>2012-07-24T19:42:43Z</time>
      </trkpt>
      <trkpt lat="46.43382" lon="-0.35444">
        <ele>101</ele>
        <time>2012-07-24T19:42:48Z</time>
      </trkpt>
      <trkpt lat="46.43352" lon="-0.35512">
        <ele>100</ele>
        <time>2012-07-24T19:42:54Z</time>
      </trkpt>
      <trkpt lat="46.43345" lon="-0.35552">
        <ele>100</ele>
        <time>2012-07-24T19:43:04Z</time>
      </trkpt>
      <trkpt lat="46.43335" lon="-0.3557">
        <ele>100</ele>
        <time>2012-07-24T19:43:10Z</time>
      </trkpt>
      <trkpt lat="46.43323" lon="-0.35589">
        <ele>99</ele>
        <time>2012-07-24T19:43:16Z</time>
      </trkpt>
      <trkpt lat="46.43314" lon="-0.35605">
        <ele>99</ele>
        <time>2012-07-24T19:43:21Z</time>
      </trkpt>
      <trkpt lat="46.43304" lon="-0.35622">
        <ele>99</ele>
        <time>2012-07-24T19:43:26Z</time>
      </trkpt>
      <trkpt lat="46.43293" lon="-0.35639">
        <ele>97</ele>
        <time>2012-07-24T19:43:31Z</time>
      </trkpt>
      <trkpt lat="46.43283" lon="-0.35657">
        <ele>93</ele>
        <time>2012-07-24T19:43:37Z</time>
      </trkpt>
      <trkpt lat="46.43268" lon="-0.35684">
        <ele>92</ele>
        <time>2012-07-24T19:43:44Z</time>
      </trkpt>
      <trkpt lat="46.43258" lon="-0.35702">
        <ele>93</ele>
        <time>2012-07-24T19:43:49Z</time>
      </trkpt>
      <trkpt lat="46.43246" lon="-0.35712">
        <ele>92</ele>
        <time>2012-07-24T19:43:53Z</time>
      </trkpt>
      <trkpt lat="46.43218" lon="-0.35728">
        <ele>91</ele>
        <time>2012-07-24T19:44:01Z</time>
      </trkpt>
      <trkpt lat="46.43203" lon="-0.35736">
        <ele>91</ele>
        <time>2012-07-24T19:44:05Z</time>
      </trkpt>
      <trkpt lat="46.43172" lon="-0.35745">
        <ele>90</ele>
        <time>2012-07-24T19:44:13Z</time>
      </trkpt>
      <trkpt lat="46.43151" lon="-0.35752">
        <ele>92</ele>
        <time>2012-07-24T19:44:19Z</time>
      </trkpt>
      <trkpt lat="46.43136" lon="-0.3576">
        <ele>91</ele>
        <time>2012-07-24T19:44:24Z</time>
      </trkpt>
      <trkpt lat="46.43121" lon="-0.35767">
        <ele>91</ele>
        <time>2012-07-24T19:44:29Z</time>
      </trkpt>
      <trkpt lat="46.43106" lon="-0.35775">
        <ele>91</ele>
        <time>2012-07-24T19:44:34Z</time>
      </trkpt>
      <trkpt lat="46.43093" lon="-0.35783">
        <ele>90</ele>
        <time>2012-07-24T19:44:39Z</time>
      </trkpt>
      <trkpt lat="46.43077" lon="-0.35793">
        <ele>90</ele>
        <time>2012-07-24T19:44:45Z</time>
      </trkpt>
      <trkpt lat="46.43057" lon="-0.35802">
        <ele>94</ele>
        <time>2012-07-24T19:44:52Z</time>
      </trkpt>
      <trkpt lat="46.43057" lon="-0.35802">
        <ele>100.8</ele>
        <time>2012-07-24T19:45:08Z</time>
      </trkpt>
      <trkpt lat="46.43057" lon="-0.35802">
        <ele>100.8</ele>
        <time>2012-07-24T19:45:12Z</time>
      </trkpt>
      <trkpt lat="46.4302" lon="-0.35814">
        <ele>98</ele>
        <time>2012-07-24T19:45:13Z</time>
      </trkpt>
      <trkpt lat="46.42994" lon="-0.35823">
        <ele>98</ele>
        <time>2012-07-24T19:45:22Z</time>
      </trkpt>
      <trkpt lat="46.42994" lon="-0.35823">
        <ele>106.6</ele>
        <time>2012-07-24T19:45:32Z</time>
      </trkpt>
      <trkpt lat="46.42994" lon="-0.35823">
        <ele>106.6</ele>
        <time>2012-07-24T19:45:39Z</time>
      </trkpt>
      <trkpt lat="46.42966" lon="-0.35837">
        <ele>102</ele>
        <time>2012-07-24T19:45:40Z</time>
      </trkpt>
      <trkpt lat="46.4295" lon="-0.35842">
        <ele>101</ele>
        <time>2012-07-24T19:45:46Z</time>
      </trkpt>
      <trkpt lat="46.42911" lon="-0.35858">
        <ele>103</ele>
        <time>2012-07-24T19:45:59Z</time>
      </trkpt>
      <trkpt lat="46.42886" lon="-0.35872">
        <ele>105</ele>
        <time>2012-07-24T19:46:05Z</time>
      </trkpt>
      <trkpt lat="46.4286" lon="-0.3589">
        <ele>106</ele>
        <time>2012-07-24T19:46:11Z</time>
      </trkpt>
      <trkpt lat="46.42831" lon="-0.35913">
        <ele>107.9</ele>
        <time>2012-07-24T19:46:19Z</time>
      </trkpt>
      <trkpt lat="46.42812" lon="-0.3593">
        <ele>106.9</ele>
        <time>2012-07-24T19:46:24Z</time>
      </trkpt>
      <trkpt lat="46.42788" lon="-0.35952">
        <ele>105.9</ele>
        <time>2012-07-24T19:46:30Z</time>
      </trkpt>
      <trkpt lat="46.42763" lon="-0.35976">
        <ele>104.9</ele>
        <time>2012-07-24T19:46:36Z</time>
      </trkpt>
      <trkpt lat="46.42739" lon="-0.36012">
        <ele>104.9</ele>
        <time>2012-07-24T19:46:42Z</time>
      </trkpt>
      <trkpt lat="46.42718" lon="-0.36049">
        <ele>103.9</ele>
        <time>2012-07-24T19:46:47Z</time>
      </trkpt>
      <trkpt lat="46.42692" lon="-0.36102">
        <ele>106.9</ele>
        <time>2012-07-24T19:46:53Z</time>
      </trkpt>
      <trkpt lat="46.42662" lon="-0.3616">
        <ele>111.9</ele>
        <time>2012-07-24T19:46:58Z</time>
      </trkpt>
      <trkpt lat="46.42625" lon="-0.36231">
        <ele>113.9</ele>
        <time>2012-07-24T19:47:04Z</time>
      </trkpt>
      <trkpt lat="46.42602" lon="-0.36277">
        <ele>114.9</ele>
        <time>2012-07-24T19:47:08Z</time>
      </trkpt>
      <trkpt lat="46.42569" lon="-0.36346">
        <ele>114.9</ele>
        <time>2012-07-24T19:47:14Z</time>
      </trkpt>
      <trkpt lat="46.42544" lon="-0.36388">
        <ele>115.9</ele>
        <time>2012-07-24T19:47:18Z</time>
      </trkpt>
      <trkpt lat="46.42499" lon="-0.36432">
        <ele>115.9</ele>
        <time>2012-07-24T19:47:24Z</time>
      </trkpt>
      <trkpt lat="46.42468" lon="-0.36459">
        <ele>114.9</ele>
        <time>2012-07-24T19:47:28Z</time>
      </trkpt>
      <trkpt lat="46.42426" lon="-0.36499">
        <ele>112.9</ele>
        <time>2012-07-24T19:47:34Z</time>
      </trkpt>
      <trkpt lat="46.42395" lon="-0.36537">
        <ele>111.9</ele>
        <time>2012-07-24T19:47:39Z</time>
      </trkpt>
      <trkpt lat="46.42371" lon="-0.36567">
        <ele>111.9</ele>
        <time>2012-07-24T19:47:43Z</time>
      </trkpt>
      <trkpt lat="46.42345" lon="-0.36605">
        <ele>110.9</ele>
        <time>2012-07-24T19:47:48Z</time>
      </trkpt>
      <trkpt lat="46.4232" lon="-0.36643">
        <ele>110.9</ele>
        <time>2012-07-24T19:47:53Z</time>
      </trkpt>
      <trkpt lat="46.42289" lon="-0.36685">
        <ele>114.9</ele>
        <time>2012-07-24T19:47:59Z</time>
      </trkpt>
      <trkpt lat="46.42266" lon="-0.36724">
        <ele>117.9</ele>
        <time>2012-07-24T19:48:04Z</time>
      </trkpt>
      <trkpt lat="46.42239" lon="-0.36766">
        <ele>117.9</ele>
        <time>2012-07-24T19:48:10Z</time>
      </trkpt>
      <trkpt lat="46.42204" lon="-0.36809">
        <ele>116.9</ele>
        <time>2012-07-24T19:48:17Z</time>
      </trkpt>
      <trkpt lat="46.42173" lon="-0.36844">
        <ele>114.9</ele>
        <time>2012-07-24T19:48:23Z</time>
      </trkpt>
      <trkpt lat="46.42149" lon="-0.3688">
        <ele>114.9</ele>
        <time>2012-07-24T19:48:28Z</time>
      </trkpt>
      <trkpt lat="46.42128" lon="-0.36918">
        <ele>112.9</ele>
        <time>2012-07-24T19:48:33Z</time>
      </trkpt>
      <trkpt lat="46.42105" lon="-0.36961">
        <ele>111.9</ele>
        <time>2012-07-24T19:48:39Z</time>
      </trkpt>
      <trkpt lat="46.42091" lon="-0.36957">
        <ele>109.9</ele>
        <time>2012-07-24T19:48:44Z</time>
      </trkpt>
      <trkpt lat="46.42072" lon="-0.36922">
        <ele>107.9</ele>
        <time>2012-07-24T19:48:49Z</time>
      </trkpt>
      <trkpt lat="46.42044" lon="-0.36879">
        <ele>106.9</ele>
        <time>2012-07-24T19:48:55Z</time>
      </trkpt>
      <trkpt lat="46.42021" lon="-0.3684">
        <ele>108.9</ele>
        <time>2012-07-24T19:49:00Z</time>
      </trkpt>
      <trkpt lat="46.42001" lon="-0.36811">
        <ele>108.9</ele>
        <time>2012-07-24T19:49:04Z</time>
      </trkpt>
      <trkpt lat="46.4198" lon="-0.3678">
        <ele>106.9</ele>
        <time>2012-07-24T19:49:08Z</time>
      </trkpt>
      <trkpt lat="46.41946" lon="-0.36727">
        <ele>106.9</ele>
        <time>2012-07-24T19:49:14Z</time>
      </trkpt>
      <trkpt lat="46.41921" lon="-0.36688">
        <ele>105.9</ele>
        <time>2012-07-24T19:49:18Z</time>
      </trkpt>
      <trkpt lat="46.41893" lon="-0.36631">
        <ele>105.9</ele>
        <time>2012-07-24T19:49:24Z</time>
      </trkpt>
      <trkpt lat="46.41877" lon="-0.36593">
        <ele>105.9</ele>
        <time>2012-07-24T19:49:28Z</time>
      </trkpt>
      <trkpt lat="46.41857" lon="-0.36546">
        <ele>104.9</ele>
        <time>2012-07-24T19:49:33Z</time>
      </trkpt>
      <trkpt lat="46.41841" lon="-0.36508">
        <ele>102.9</ele>
        <time>2012-07-24T19:49:37Z</time>
      </trkpt>
      <trkpt lat="46.41826" lon="-0.36469">
        <ele>102.9</ele>
        <time>2012-07-24T19:49:41Z</time>
      </trkpt>
      <trkpt lat="46.41803" lon="-0.36414">
        <ele>100.9</ele>
        <time>2012-07-24T19:49:47Z</time>
      </trkpt>
      <trkpt lat="46.41785" lon="-0.36373">
        <ele>96.9</ele>
        <time>2012-07-24T19:49:52Z</time>
      </trkpt>
      <trkpt lat="46.41763" lon="-0.36332">
        <ele>97.9</ele>
        <time>2012-07-24T19:49:57Z</time>
      </trkpt>
      <trkpt lat="46.41745" lon="-0.36297">
        <ele>98.9</ele>
        <time>2012-07-24T19:50:02Z</time>
      </trkpt>
      <trkpt lat="46.41724" lon="-0.36256">
        <ele>97.9</ele>
        <time>2012-07-24T19:50:08Z</time>
      </trkpt>
      <trkpt lat="46.41701" lon="-0.36216">
        <ele>97.9</ele>
        <time>2012-07-24T19:50:14Z</time>
      </trkpt>
      <trkpt lat="46.41681" lon="-0.36185">
        <ele>97.9</ele>
        <time>2012-07-24T19:50:19Z</time>
      </trkpt>
      <trkpt lat="46.41656" lon="-0.36147">
        <ele>97.9</ele>
        <time>2012-07-24T19:50:25Z</time>
      </trkpt>
      <trkpt lat="46.41636" lon="-0.36113">
        <ele>96.9</ele>
        <time>2012-07-24T19:50:30Z</time>
      </trkpt>
      <trkpt lat="46.41616" lon="-0.36076">
        <ele>95.9</ele>
        <time>2012-07-24T19:50:35Z</time>
      </trkpt>
      <trkpt lat="46.41596" lon="-0.36025">
        <ele>93.9</ele>
        <time>2012-07-24T19:50:41Z</time>
      </trkpt>
      <trkpt lat="46.41572" lon="-0.35972">
        <ele>92.9</ele>
        <time>2012-07-24T19:50:47Z</time>
      </trkpt>
      <trkpt lat="46.41552" lon="-0.35929">
        <ele>90.9</ele>
        <time>2012-07-24T19:50:52Z</time>
      </trkpt>
      <trkpt lat="46.41536" lon="-0.35893">
        <ele>90.9</ele>
        <time>2012-07-24T19:50:56Z</time>
      </trkpt>
      <trkpt lat="46.41514" lon="-0.35837">
        <ele>92.9</ele>
        <time>2012-07-24T19:51:02Z</time>
      </trkpt>
      <trkpt lat="46.41492" lon="-0.35789">
        <ele>93.9</ele>
        <time>2012-07-24T19:51:08Z</time>
      </trkpt>
      <trkpt lat="46.41469" lon="-0.35755">
        <ele>93.9</ele>
        <time>2012-07-24T19:51:14Z</time>
      </trkpt>
      <trkpt lat="46.41439" lon="-0.35795">
        <ele>90.9</ele>
        <time>2012-07-24T19:51:18Z</time>
      </trkpt>
      <trkpt lat="46.41391" lon="-0.35847">
        <ele>86.9</ele>
        <time>2012-07-24T19:51:24Z</time>
      </trkpt>
      <trkpt lat="46.41351" lon="-0.35874">
        <ele>83.9</ele>
        <time>2012-07-24T19:51:30Z</time>
      </trkpt>
      <trkpt lat="46.41325" lon="-0.35891">
        <ele>82.9</ele>
        <time>2012-07-24T19:51:34Z</time>
      </trkpt>
      <trkpt lat="46.4128" lon="-0.35916">
        <ele>80.9</ele>
        <time>2012-07-24T19:51:40Z</time>
      </trkpt>
      <trkpt lat="46.41253" lon="-0.35923">
        <ele>80.9</ele>
        <time>2012-07-24T19:51:44Z</time>
      </trkpt>
      <trkpt lat="46.41211" lon="-0.35946">
        <ele>79.9</ele>
        <time>2012-07-24T19:51:50Z</time>
      </trkpt>
      <trkpt lat="46.41174" lon="-0.35964">
        <ele>78.9</ele>
        <time>2012-07-24T19:51:55Z</time>
      </trkpt>
      <trkpt lat="46.41138" lon="-0.35982">
        <ele>80.9</ele>
        <time>2012-07-24T19:52:00Z</time>
      </trkpt>
      <trkpt lat="46.41108" lon="-0.35997">
        <ele>81.9</ele>
        <time>2012-07-24T19:52:04Z</time>
      </trkpt>
      <trkpt lat="46.41078" lon="-0.36011">
        <ele>81.9</ele>
        <time>2012-07-24T19:52:08Z</time>
      </trkpt>
      <trkpt lat="46.41033" lon="-0.3603">
        <ele>81.9</ele>
        <time>2012-07-24T19:52:14Z</time>
      </trkpt>
      <trkpt lat="46.41005" lon="-0.36046">
        <ele>81.9</ele>
        <time>2012-07-24T19:52:18Z</time>
      </trkpt>
      <trkpt lat="46.40968" lon="-0.3608">
        <ele>81.9</ele>
        <time>2012-07-24T19:52:24Z</time>
      </trkpt>
      <trkpt lat="46.40936" lon="-0.36115">
        <ele>82.9</ele>
        <time>2012-07-24T19:52:30Z</time>
      </trkpt>
      <trkpt lat="46.40913" lon="-0.36145">
        <ele>80.9</ele>
        <time>2012-07-24T19:52:36Z</time>
      </trkpt>
      <trkpt lat="46.40889" lon="-0.36174">
        <ele>78.9</ele>
        <time>2012-07-24T19:52:43Z</time>
      </trkpt>
      <trkpt lat="46.40863" lon="-0.36199">
        <ele>77.9</ele>
        <time>2012-07-24T19:52:49Z</time>
      </trkpt>
      <trkpt lat="46.40838" lon="-0.36216">
        <ele>75.9</ele>
        <time>2012-07-24T19:52:54Z</time>
      </trkpt>
      <trkpt lat="46.40808" lon="-0.36237">
        <ele>74.9</ele>
        <time>2012-07-24T19:53:00Z</time>
      </trkpt>
      <trkpt lat="46.40783" lon="-0.36257">
        <ele>74.9</ele>
        <time>2012-07-24T19:53:06Z</time>
      </trkpt>
      <trkpt lat="46.40755" lon="-0.36283">
        <ele>75.9</ele>
        <time>2012-07-24T19:53:13Z</time>
      </trkpt>
      <trkpt lat="46.4073" lon="-0.36307">
        <ele>76.9</ele>
        <time>2012-07-24T19:53:19Z</time>
      </trkpt>
      <trkpt lat="46.40697" lon="-0.36335">
        <ele>78.9</ele>
        <time>2012-07-24T19:53:25Z</time>
      </trkpt>
      <trkpt lat="46.40669" lon="-0.36366">
        <ele>78.9</ele>
        <time>2012-07-24T19:53:32Z</time>
      </trkpt>
      <trkpt lat="46.40621" lon="-0.36414">
        <ele>80.9</ele>
        <time>2012-07-24T19:53:38Z</time>
      </trkpt>
      <trkpt lat="46.40578" lon="-0.36454">
        <ele>81.9</ele>
        <time>2012-07-24T19:53:44Z</time>
      </trkpt>
      <trkpt lat="46.40551" lon="-0.36479">
        <ele>82.9</ele>
        <time>2012-07-24T19:53:48Z</time>
      </trkpt>
      <trkpt lat="46.40523" lon="-0.36504">
        <ele>84.9</ele>
        <time>2012-07-24T19:53:52Z</time>
      </trkpt>
      <trkpt lat="46.40488" lon="-0.36533">
        <ele>84.9</ele>
        <time>2012-07-24T19:53:57Z</time>
      </trkpt>
      <trkpt lat="46.40457" lon="-0.36554">
        <ele>82.9</ele>
        <time>2012-07-24T19:54:01Z</time>
      </trkpt>
      <trkpt lat="46.40424" lon="-0.36578">
        <ele>81.9</ele>
        <time>2012-07-24T19:54:05Z</time>
      </trkpt>
      <trkpt lat="46.40378" lon="-0.36614">
        <ele>79.9</ele>
        <time>2012-07-24T19:54:11Z</time>
      </trkpt>
      <trkpt lat="46.40334" lon="-0.36648">
        <ele>79.9</ele>
        <time>2012-07-24T19:54:17Z</time>
      </trkpt>
      <trkpt lat="46.40293" lon="-0.36677">
        <ele>78.9</ele>
        <time>2012-07-24T19:54:23Z</time>
      </trkpt>
      <trkpt lat="46.40252" lon="-0.36706">
        <ele>78.9</ele>
        <time>2012-07-24T19:54:29Z</time>
      </trkpt>
      <trkpt lat="46.40225" lon="-0.36724">
        <ele>78.9</ele>
        <time>2012-07-24T19:54:33Z</time>
      </trkpt>
      <trkpt lat="46.40187" lon="-0.36748">
        <ele>78.9</ele>
        <time>2012-07-24T19:54:39Z</time>
      </trkpt>
      <trkpt lat="46.40162" lon="-0.36765">
        <ele>77.9</ele>
        <time>2012-07-24T19:54:43Z</time>
      </trkpt>
      <trkpt lat="46.40117" lon="-0.36793">
        <ele>81.9</ele>
        <time>2012-07-24T19:54:50Z</time>
      </trkpt>
      <trkpt lat="46.40078" lon="-0.36819">
        <ele>83.9</ele>
        <time>2012-07-24T19:54:56Z</time>
      </trkpt>
      <trkpt lat="46.40046" lon="-0.36842">
        <ele>83.9</ele>
        <time>2012-07-24T19:55:01Z</time>
      </trkpt>
      <trkpt lat="46.40021" lon="-0.3686">
        <ele>83.9</ele>
        <time>2012-07-24T19:55:05Z</time>
      </trkpt>
      <trkpt lat="46.3999" lon="-0.36889">
        <ele>82.9</ele>
        <time>2012-07-24T19:55:11Z</time>
      </trkpt>
      <trkpt lat="46.39965" lon="-0.36931">
        <ele>82.9</ele>
        <time>2012-07-24T19:55:17Z</time>
      </trkpt>
      <trkpt lat="46.39951" lon="-0.36976">
        <ele>81.9</ele>
        <time>2012-07-24T19:55:22Z</time>
      </trkpt>
      <trkpt lat="46.39935" lon="-0.37019">
        <ele>81.9</ele>
        <time>2012-07-24T19:55:27Z</time>
      </trkpt>
      <trkpt lat="46.39921" lon="-0.37054">
        <ele>80.9</ele>
        <time>2012-07-24T19:55:31Z</time>
      </trkpt>
      <trkpt lat="46.39904" lon="-0.371">
        <ele>80.9</ele>
        <time>2012-07-24T19:55:36Z</time>
      </trkpt>
      <trkpt lat="46.39889" lon="-0.37137">
        <ele>80.9</ele>
        <time>2012-07-24T19:55:40Z</time>
      </trkpt>
      <trkpt lat="46.3987" lon="-0.37175">
        <ele>79.9</ele>
        <time>2012-07-24T19:55:44Z</time>
      </trkpt>
      <trkpt lat="46.39841" lon="-0.37214">
        <ele>80.9</ele>
        <time>2012-07-24T19:55:49Z</time>
      </trkpt>
      <trkpt lat="46.39807" lon="-0.37242">
        <ele>81.9</ele>
        <time>2012-07-24T19:55:53Z</time>
      </trkpt>
      <trkpt lat="46.39756" lon="-0.37266">
        <ele>81.9</ele>
        <time>2012-07-24T19:55:59Z</time>
      </trkpt>
      <trkpt lat="46.39723" lon="-0.3728">
        <ele>81.9</ele>
        <time>2012-07-24T19:56:03Z</time>
      </trkpt>
      <trkpt lat="46.39681" lon="-0.37304">
        <ele>81.9</ele>
        <time>2012-07-24T19:56:09Z</time>
      </trkpt>
      <trkpt lat="46.39656" lon="-0.37324">
        <ele>80.9</ele>
        <time>2012-07-24T19:56:13Z</time>
      </trkpt>
      <trkpt lat="46.39629" lon="-0.37351">
        <ele>80.9</ele>
        <time>2012-07-24T19:56:18Z</time>
      </trkpt>
      <trkpt lat="46.396" lon="-0.37376">
        <ele>80.9</ele>
        <time>2012-07-24T19:56:23Z</time>
      </trkpt>
      <trkpt lat="46.39573" lon="-0.37399">
        <ele>79.9</ele>
        <time>2012-07-24T19:56:28Z</time>
      </trkpt>
      <trkpt lat="46.39542" lon="-0.37427">
        <ele>79.9</ele>
        <time>2012-07-24T19:56:34Z</time>
      </trkpt>
      <trkpt lat="46.39511" lon="-0.37454">
        <ele>79.9</ele>
        <time>2012-07-24T19:56:40Z</time>
      </trkpt>
      <trkpt lat="46.39484" lon="-0.37476">
        <ele>78.9</ele>
        <time>2012-07-24T19:56:45Z</time>
      </trkpt>
      <trkpt lat="46.39453" lon="-0.37502">
        <ele>80.9</ele>
        <time>2012-07-24T19:56:51Z</time>
      </trkpt>
      <trkpt lat="46.39431" lon="-0.37529">
        <ele>82.9</ele>
        <time>2012-07-24T19:56:56Z</time>
      </trkpt>
      <trkpt lat="46.39408" lon="-0.37565">
        <ele>85.9</ele>
        <time>2012-07-24T19:57:02Z</time>
      </trkpt>
      <trkpt lat="46.3939" lon="-0.37599">
        <ele>85.9</ele>
        <time>2012-07-24T19:57:07Z</time>
      </trkpt>
      <trkpt lat="46.39379" lon="-0.37628">
        <ele>84.9</ele>
        <time>2012-07-24T19:57:11Z</time>
      </trkpt>
      <trkpt lat="46.39363" lon="-0.37676">
        <ele>83.9</ele>
        <time>2012-07-24T19:57:17Z</time>
      </trkpt>
      <trkpt lat="46.39344" lon="-0.37734">
        <ele>81.9</ele>
        <time>2012-07-24T19:57:23Z</time>
      </trkpt>
      <trkpt lat="46.39324" lon="-0.37787">
        <ele>80.9</ele>
        <time>2012-07-24T19:57:28Z</time>
      </trkpt>
      <trkpt lat="46.39299" lon="-0.37829">
        <ele>79.9</ele>
        <time>2012-07-24T19:57:32Z</time>
      </trkpt>
      <trkpt lat="46.39252" lon="-0.37877">
        <ele>76.9</ele>
        <time>2012-07-24T19:57:38Z</time>
      </trkpt>
      <trkpt lat="46.39202" lon="-0.37914">
        <ele>76.9</ele>
        <time>2012-07-24T19:57:44Z</time>
      </trkpt>
      <trkpt lat="46.39148" lon="-0.37939">
        <ele>75.9</ele>
        <time>2012-07-24T19:57:50Z</time>
      </trkpt>
      <trkpt lat="46.39116" lon="-0.37953">
        <ele>78.9</ele>
        <time>2012-07-24T19:57:54Z</time>
      </trkpt>
      <trkpt lat="46.39078" lon="-0.37973">
        <ele>81.9</ele>
        <time>2012-07-24T19:57:58Z</time>
      </trkpt>
      <trkpt lat="46.39034" lon="-0.38003">
        <ele>83.9</ele>
        <time>2012-07-24T19:58:03Z</time>
      </trkpt>
      <trkpt lat="46.38992" lon="-0.38051">
        <ele>81.9</ele>
        <time>2012-07-24T19:58:09Z</time>
      </trkpt>
      <trkpt lat="46.3897" lon="-0.38081">
        <ele>80.9</ele>
        <time>2012-07-24T19:58:13Z</time>
      </trkpt>
      <trkpt lat="46.38939" lon="-0.38129">
        <ele>77.9</ele>
        <time>2012-07-24T19:58:19Z</time>
      </trkpt>
      <trkpt lat="46.38917" lon="-0.38158">
        <ele>75.9</ele>
        <time>2012-07-24T19:58:23Z</time>
      </trkpt>
      <trkpt lat="46.38893" lon="-0.38185">
        <ele>74.9</ele>
        <time>2012-07-24T19:58:27Z</time>
      </trkpt>
      <trkpt lat="46.38857" lon="-0.38219">
        <ele>71.9</ele>
        <time>2012-07-24T19:58:33Z</time>
      </trkpt>
      <trkpt lat="46.38819" lon="-0.38252">
        <ele>70.9</ele>
        <time>2012-07-24T19:58:39Z</time>
      </trkpt>
      <trkpt lat="46.38795" lon="-0.38276">
        <ele>68.9</ele>
        <time>2012-07-24T19:58:43Z</time>
      </trkpt>
      <trkpt lat="46.38755" lon="-0.38314">
        <ele>66.9</ele>
        <time>2012-07-24T19:58:49Z</time>
      </trkpt>
      <trkpt lat="46.38726" lon="-0.38349">
        <ele>68.9</ele>
        <time>2012-07-24T19:58:53Z</time>
      </trkpt>
      <trkpt lat="46.3868" lon="-0.3842">
        <ele>69.9</ele>
        <time>2012-07-24T19:58:59Z</time>
      </trkpt>
      <trkpt lat="46.38648" lon="-0.38463">
        <ele>70.9</ele>
        <time>2012-07-24T19:59:03Z</time>
      </trkpt>
      <trkpt lat="46.38603" lon="-0.38516">
        <ele>70.9</ele>
        <time>2012-07-24T19:59:09Z</time>
      </trkpt>
      <trkpt lat="46.38577" lon="-0.38547">
        <ele>69.9</ele>
        <time>2012-07-24T19:59:13Z</time>
      </trkpt>
      <trkpt lat="46.3855" lon="-0.38585">
        <ele>67.9</ele>
        <time>2012-07-24T19:59:18Z</time>
      </trkpt>
      <trkpt lat="46.38533" lon="-0.38621">
        <ele>65.9</ele>
        <time>2012-07-24T19:59:22Z</time>
      </trkpt>
      <trkpt lat="46.3852" lon="-0.38688">
        <ele>62.9</ele>
        <time>2012-07-24T19:59:28Z</time>
      </trkpt>
      <trkpt lat="46.38514" lon="-0.38729">
        <ele>61.9</ele>
        <time>2012-07-24T19:59:32Z</time>
      </trkpt>
      <trkpt lat="46.38485" lon="-0.38784">
        <ele>59.9</ele>
        <time>2012-07-24T19:59:39Z</time>
      </trkpt>
      <trkpt lat="46.38467" lon="-0.38827">
        <ele>58.9</ele>
        <time>2012-07-24T19:59:45Z</time>
      </trkpt>
      <trkpt lat="46.38447" lon="-0.38867">
        <ele>56.9</ele>
        <time>2012-07-24T19:59:50Z</time>
      </trkpt>
      <trkpt lat="46.38423" lon="-0.38917">
        <ele>65.9</ele>
        <time>2012-07-24T19:59:56Z</time>
      </trkpt>
      <trkpt lat="46.38405" lon="-0.38979">
        <ele>71.9</ele>
        <time>2012-07-24T20:00:03Z</time>
      </trkpt>
      <trkpt lat="46.38391" lon="-0.38976">
        <ele>66.9</ele>
        <time>2012-07-24T20:00:14Z</time>
      </trkpt>
      <trkpt lat="46.38378" lon="-0.38926">
        <ele>64.9</ele>
        <time>2012-07-24T20:00:20Z</time>
      </trkpt>
      <trkpt lat="46.38361" lon="-0.3888">
        <ele>65.9</ele>
        <time>2012-07-24T20:00:26Z</time>
      </trkpt>
      <trkpt lat="46.38332" lon="-0.38866">
        <ele>64.9</ele>
        <time>2012-07-24T20:00:30Z</time>
      </trkpt>
      <trkpt lat="46.38307" lon="-0.38866">
        <ele>61.9</ele>
        <time>2012-07-24T20:00:38Z</time>
      </trkpt>
      <trkpt lat="46.38307" lon="-0.38866">
        <ele>35.1</ele>
        <time>2012-07-24T20:00:46Z</time>
      </trkpt>
    </trkseg>
  </trk>
</gpx>